<?xml version="1.0" encoding="UTF-8" standalone="no" ?>
<gpx xmlns="http://www.topografix.com/GPX/1/1" xmlns:xsi="http://www.w3.org/2001/XMLSchema-instance" xsi:schemaLocation="http://www.topografix.com/GPX/1/1 http://www.topografix.com/GPX/1/1/gpx.xsd" version="1.1" creator="VisuGPX - https://www.visugpx.com">
  <metadata>
    <name>2019-04-04 - Amiens</name>
    <desc><![CDATA[2019-04-04 - Amiens - Isabelle & Denis]]></desc>
  </metadata>
  <trk>
    <name><![CDATA[4 avr. 2019]]></name>
    <cmt><![CDATA[8:23:54 AM]]></cmt>
    <desc><![CDATA[comment ...]]></desc>
    <trkseg>
      <trkpt lat="49.89107" lon="2.30713">
        <ele>92</ele>
        <time>2019-04-04T06:23:53Z</time>
      </trkpt>
      <trkpt lat="49.89107" lon="2.30713">
        <ele>91</ele>
        <time>2019-04-04T06:23:54Z</time>
      </trkpt>
      <trkpt lat="49.89095" lon="2.30692">
        <ele>87</ele>
        <time>2019-04-04T06:24:03Z</time>
      </trkpt>
      <trkpt lat="49.89088" lon="2.30677">
        <ele>38</ele>
        <time>2019-04-04T06:25:32Z</time>
      </trkpt>
      <trkpt lat="49.89071" lon="2.30667">
        <ele>33</ele>
        <time>2019-04-04T06:26:04Z</time>
      </trkpt>
      <trkpt lat="49.89081" lon="2.30654">
        <ele>29</ele>
        <time>2019-04-04T06:26:59Z</time>
      </trkpt>
      <trkpt lat="49.89086" lon="2.30638">
        <ele>27</ele>
        <time>2019-04-04T06:27:10Z</time>
      </trkpt>
      <trkpt lat="49.89084" lon="2.30623">
        <ele>26</ele>
        <time>2019-04-04T06:27:15Z</time>
      </trkpt>
      <trkpt lat="49.89084" lon="2.30612">
        <ele>27</ele>
        <time>2019-04-04T06:27:21Z</time>
      </trkpt>
      <trkpt lat="49.89082" lon="2.30593">
        <ele>27</ele>
        <time>2019-04-04T06:27:35Z</time>
      </trkpt>
      <trkpt lat="49.89078" lon="2.30582">
        <ele>26</ele>
        <time>2019-04-04T06:27:40Z</time>
      </trkpt>
      <trkpt lat="49.89078" lon="2.30567">
        <ele>26</ele>
        <time>2019-04-04T06:27:50Z</time>
      </trkpt>
      <trkpt lat="49.89089" lon="2.30548">
        <ele>26</ele>
        <time>2019-04-04T06:28:03Z</time>
      </trkpt>
      <trkpt lat="49.89091" lon="2.30542">
        <ele>26</ele>
        <time>2019-04-04T06:28:08Z</time>
      </trkpt>
      <trkpt lat="49.89086" lon="2.30529">
        <ele>34</ele>
        <time>2019-04-04T06:49:42Z</time>
      </trkpt>
      <trkpt lat="49.89084" lon="2.30506">
        <ele>32</ele>
        <time>2019-04-04T06:49:49Z</time>
      </trkpt>
      <trkpt lat="49.89092" lon="2.3049">
        <ele>36</ele>
        <time>2019-04-04T06:49:59Z</time>
      </trkpt>
      <trkpt lat="49.89105" lon="2.30455">
        <ele>36</ele>
        <time>2019-04-04T06:50:26Z</time>
      </trkpt>
      <trkpt lat="49.89117" lon="2.30443">
        <ele>33</ele>
        <time>2019-04-04T06:50:50Z</time>
      </trkpt>
      <trkpt lat="49.89126" lon="2.30403">
        <ele>33</ele>
        <time>2019-04-04T06:51:18Z</time>
      </trkpt>
      <trkpt lat="49.89125" lon="2.3038">
        <ele>32</ele>
        <time>2019-04-04T06:51:38Z</time>
      </trkpt>
      <trkpt lat="49.89129" lon="2.30361">
        <ele>37</ele>
        <time>2019-04-04T06:51:52Z</time>
      </trkpt>
      <trkpt lat="49.89139" lon="2.3034">
        <ele>39</ele>
        <time>2019-04-04T06:52:08Z</time>
      </trkpt>
      <trkpt lat="49.89146" lon="2.30318">
        <ele>41</ele>
        <time>2019-04-04T06:52:24Z</time>
      </trkpt>
      <trkpt lat="49.89148" lon="2.30291">
        <ele>38</ele>
        <time>2019-04-04T06:52:46Z</time>
      </trkpt>
      <trkpt lat="49.8914" lon="2.30263">
        <ele>34</ele>
        <time>2019-04-04T06:53:11Z</time>
      </trkpt>
      <trkpt lat="49.89159" lon="2.30237">
        <ele>31</ele>
        <time>2019-04-04T06:53:55Z</time>
      </trkpt>
      <trkpt lat="49.89169" lon="2.30221">
        <ele>32</ele>
        <time>2019-04-04T06:54:09Z</time>
      </trkpt>
      <trkpt lat="49.89186" lon="2.30211">
        <ele>35</ele>
        <time>2019-04-04T06:54:25Z</time>
      </trkpt>
      <trkpt lat="49.89204" lon="2.30208">
        <ele>39</ele>
        <time>2019-04-04T06:54:41Z</time>
      </trkpt>
      <trkpt lat="49.8922" lon="2.30201">
        <ele>46</ele>
        <time>2019-04-04T06:54:57Z</time>
      </trkpt>
      <trkpt lat="49.89251" lon="2.30202">
        <ele>49</ele>
        <time>2019-04-04T06:55:25Z</time>
      </trkpt>
      <trkpt lat="49.89263" lon="2.30219">
        <ele>46</ele>
        <time>2019-04-04T06:55:35Z</time>
      </trkpt>
      <trkpt lat="49.8928" lon="2.30235">
        <ele>41</ele>
        <time>2019-04-04T06:55:45Z</time>
      </trkpt>
      <trkpt lat="49.89295" lon="2.30241">
        <ele>37</ele>
        <time>2019-04-04T06:56:11Z</time>
      </trkpt>
      <trkpt lat="49.89308" lon="2.30236">
        <ele>39</ele>
        <time>2019-04-04T06:56:23Z</time>
      </trkpt>
      <trkpt lat="49.8932" lon="2.30241">
        <ele>40</ele>
        <time>2019-04-04T06:56:33Z</time>
      </trkpt>
      <trkpt lat="49.89352" lon="2.30241">
        <ele>42</ele>
        <time>2019-04-04T06:57:02Z</time>
      </trkpt>
      <trkpt lat="49.8937" lon="2.30245">
        <ele>43</ele>
        <time>2019-04-04T06:57:14Z</time>
      </trkpt>
      <trkpt lat="49.89389" lon="2.30258">
        <ele>46</ele>
        <time>2019-04-04T06:57:29Z</time>
      </trkpt>
      <trkpt lat="49.89396" lon="2.3028">
        <ele>48</ele>
        <time>2019-04-04T06:57:34Z</time>
      </trkpt>
      <trkpt lat="49.89404" lon="2.3029">
        <ele>47</ele>
        <time>2019-04-04T06:57:47Z</time>
      </trkpt>
      <trkpt lat="49.89408" lon="2.30298">
        <ele>46</ele>
        <time>2019-04-04T06:57:52Z</time>
      </trkpt>
      <trkpt lat="49.89406" lon="2.30315">
        <ele>48</ele>
        <time>2019-04-04T06:58:01Z</time>
      </trkpt>
      <trkpt lat="49.89405" lon="2.30321">
        <ele>49</ele>
        <time>2019-04-04T06:58:05Z</time>
      </trkpt>
      <trkpt lat="49.89399" lon="2.30322">
        <ele>45</ele>
        <time>2019-04-04T06:58:26Z</time>
      </trkpt>
      <trkpt lat="49.89394" lon="2.3032">
        <ele>35</ele>
        <time>2019-04-04T06:58:29Z</time>
      </trkpt>
      <trkpt lat="49.89388" lon="2.30331">
        <ele>27</ele>
        <time>2019-04-04T06:58:40Z</time>
      </trkpt>
      <trkpt lat="49.89392" lon="2.30337">
        <ele>25</ele>
        <time>2019-04-04T06:59:04Z</time>
      </trkpt>
      <trkpt lat="49.89397" lon="2.30342">
        <ele>25</ele>
        <time>2019-04-04T06:59:13Z</time>
      </trkpt>
      <trkpt lat="49.89403" lon="2.30341">
        <ele>25</ele>
        <time>2019-04-04T06:59:20Z</time>
      </trkpt>
      <trkpt lat="49.89405" lon="2.30342">
        <ele>20</ele>
        <time>2019-04-04T06:59:49Z</time>
      </trkpt>
      <trkpt lat="49.89408" lon="2.30347">
        <ele>20</ele>
        <time>2019-04-04T06:59:54Z</time>
      </trkpt>
      <trkpt lat="49.89413" lon="2.30349">
        <ele>21</ele>
        <time>2019-04-04T07:00:05Z</time>
      </trkpt>
      <trkpt lat="49.89413" lon="2.30356">
        <ele>22</ele>
        <time>2019-04-04T07:00:12Z</time>
      </trkpt>
      <trkpt lat="49.89417" lon="2.3038">
        <ele>22</ele>
        <time>2019-04-04T07:00:26Z</time>
      </trkpt>
      <trkpt lat="49.89435" lon="2.30373">
        <ele>23</ele>
        <time>2019-04-04T07:00:32Z</time>
      </trkpt>
      <trkpt lat="49.8943" lon="2.30402">
        <ele>26</ele>
        <time>2019-04-04T07:00:40Z</time>
      </trkpt>
      <trkpt lat="49.89445" lon="2.30406">
        <ele>26</ele>
        <time>2019-04-04T07:00:54Z</time>
      </trkpt>
      <trkpt lat="49.8946" lon="2.30412">
        <ele>26</ele>
        <time>2019-04-04T07:01:04Z</time>
      </trkpt>
      <trkpt lat="49.89468" lon="2.30432">
        <ele>24</ele>
        <time>2019-04-04T07:01:21Z</time>
      </trkpt>
      <trkpt lat="49.89482" lon="2.3044">
        <ele>24</ele>
        <time>2019-04-04T07:01:35Z</time>
      </trkpt>
      <trkpt lat="49.89497" lon="2.30441">
        <ele>26</ele>
        <time>2019-04-04T07:01:48Z</time>
      </trkpt>
      <trkpt lat="49.89515" lon="2.30445">
        <ele>26</ele>
        <time>2019-04-04T07:02:10Z</time>
      </trkpt>
      <trkpt lat="49.89541" lon="2.30437">
        <ele>27</ele>
        <time>2019-04-04T07:02:34Z</time>
      </trkpt>
      <trkpt lat="49.89558" lon="2.30444">
        <ele>29</ele>
        <time>2019-04-04T07:02:47Z</time>
      </trkpt>
      <trkpt lat="49.89565" lon="2.30464">
        <ele>32</ele>
        <time>2019-04-04T07:03:14Z</time>
      </trkpt>
      <trkpt lat="49.8957" lon="2.30485">
        <ele>31</ele>
        <time>2019-04-04T07:03:30Z</time>
      </trkpt>
      <trkpt lat="49.89561" lon="2.30539">
        <ele>36</ele>
        <time>2019-04-04T07:03:59Z</time>
      </trkpt>
      <trkpt lat="49.89541" lon="2.30554">
        <ele>29</ele>
        <time>2019-04-04T07:04:03Z</time>
      </trkpt>
      <trkpt lat="49.89546" lon="2.30559">
        <ele>26</ele>
        <time>2019-04-04T07:04:11Z</time>
      </trkpt>
      <trkpt lat="49.89548" lon="2.30566">
        <ele>25</ele>
        <time>2019-04-04T07:04:15Z</time>
      </trkpt>
      <trkpt lat="49.89559" lon="2.30575">
        <ele>24</ele>
        <time>2019-04-04T07:04:23Z</time>
      </trkpt>
      <trkpt lat="49.89568" lon="2.30592">
        <ele>24</ele>
        <time>2019-04-04T07:04:41Z</time>
      </trkpt>
      <trkpt lat="49.89595" lon="2.30609">
        <ele>25</ele>
        <time>2019-04-04T07:05:12Z</time>
      </trkpt>
      <trkpt lat="49.89598" lon="2.30618">
        <ele>25</ele>
        <time>2019-04-04T07:05:21Z</time>
      </trkpt>
      <trkpt lat="49.89596" lon="2.3062">
        <ele>23</ele>
        <time>2019-04-04T07:05:30Z</time>
      </trkpt>
      <trkpt lat="49.89593" lon="2.30616">
        <ele>22</ele>
        <time>2019-04-04T07:05:35Z</time>
      </trkpt>
      <trkpt lat="49.89595" lon="2.3062">
        <ele>22</ele>
        <time>2019-04-04T07:05:46Z</time>
      </trkpt>
      <trkpt lat="49.89602" lon="2.30622">
        <ele>22</ele>
        <time>2019-04-04T07:05:49Z</time>
      </trkpt>
      <trkpt lat="49.89605" lon="2.30626">
        <ele>24</ele>
        <time>2019-04-04T07:05:53Z</time>
      </trkpt>
      <trkpt lat="49.8961" lon="2.30624">
        <ele>24</ele>
        <time>2019-04-04T07:05:59Z</time>
      </trkpt>
      <trkpt lat="49.89618" lon="2.30628">
        <ele>25</ele>
        <time>2019-04-04T07:06:08Z</time>
      </trkpt>
      <trkpt lat="49.89627" lon="2.30632">
        <ele>24</ele>
        <time>2019-04-04T07:06:16Z</time>
      </trkpt>
      <trkpt lat="49.89632" lon="2.30634">
        <ele>24</ele>
        <time>2019-04-04T07:06:20Z</time>
      </trkpt>
      <trkpt lat="49.89668" lon="2.30623">
        <ele>26</ele>
        <time>2019-04-04T07:06:51Z</time>
      </trkpt>
      <trkpt lat="49.89711" lon="2.30605">
        <ele>24</ele>
        <time>2019-04-04T07:07:27Z</time>
      </trkpt>
      <trkpt lat="49.89725" lon="2.30609">
        <ele>24</ele>
        <time>2019-04-04T07:07:40Z</time>
      </trkpt>
      <trkpt lat="49.89763" lon="2.30604">
        <ele>22</ele>
        <time>2019-04-04T07:08:12Z</time>
      </trkpt>
      <trkpt lat="49.89768" lon="2.30603">
        <ele>21</ele>
        <time>2019-04-04T07:08:17Z</time>
      </trkpt>
      <trkpt lat="49.89775" lon="2.30606">
        <ele>22</ele>
        <time>2019-04-04T07:08:21Z</time>
      </trkpt>
      <trkpt lat="49.89781" lon="2.30601">
        <ele>23</ele>
        <time>2019-04-04T07:08:28Z</time>
      </trkpt>
      <trkpt lat="49.89796" lon="2.30601">
        <ele>22</ele>
        <time>2019-04-04T07:08:40Z</time>
      </trkpt>
      <trkpt lat="49.89814" lon="2.30598">
        <ele>21</ele>
        <time>2019-04-04T07:08:56Z</time>
      </trkpt>
      <trkpt lat="49.89826" lon="2.30589">
        <ele>21</ele>
        <time>2019-04-04T07:09:08Z</time>
      </trkpt>
      <trkpt lat="49.89835" lon="2.30575">
        <ele>24</ele>
        <time>2019-04-04T07:09:20Z</time>
      </trkpt>
      <trkpt lat="49.89848" lon="2.30571">
        <ele>25</ele>
        <time>2019-04-04T07:09:32Z</time>
      </trkpt>
      <trkpt lat="49.89857" lon="2.30587">
        <ele>26</ele>
        <time>2019-04-04T07:09:52Z</time>
      </trkpt>
      <trkpt lat="49.89857" lon="2.30594">
        <ele>28</ele>
        <time>2019-04-04T07:09:56Z</time>
      </trkpt>
      <trkpt lat="49.8987" lon="2.30624">
        <ele>29</ele>
        <time>2019-04-04T07:10:32Z</time>
      </trkpt>
      <trkpt lat="49.89866" lon="2.30625">
        <ele>27</ele>
        <time>2019-04-04T07:10:39Z</time>
      </trkpt>
      <trkpt lat="49.89861" lon="2.30624">
        <ele>23</ele>
        <time>2019-04-04T07:10:43Z</time>
      </trkpt>
      <trkpt lat="49.89856" lon="2.30625">
        <ele>22</ele>
        <time>2019-04-04T07:10:47Z</time>
      </trkpt>
      <trkpt lat="49.89848" lon="2.30632">
        <ele>19</ele>
        <time>2019-04-04T07:10:55Z</time>
      </trkpt>
      <trkpt lat="49.89839" lon="2.30649">
        <ele>20</ele>
        <time>2019-04-04T07:11:07Z</time>
      </trkpt>
      <trkpt lat="49.89832" lon="2.30662">
        <ele>22</ele>
        <time>2019-04-04T07:11:17Z</time>
      </trkpt>
      <trkpt lat="49.89833" lon="2.30673">
        <ele>23</ele>
        <time>2019-04-04T07:11:24Z</time>
      </trkpt>
      <trkpt lat="49.89831" lon="2.30701">
        <ele>24</ele>
        <time>2019-04-04T07:11:40Z</time>
      </trkpt>
      <trkpt lat="49.89834" lon="2.30714">
        <ele>28</ele>
        <time>2019-04-04T07:11:48Z</time>
      </trkpt>
      <trkpt lat="49.89833" lon="2.30725">
        <ele>29</ele>
        <time>2019-04-04T07:11:56Z</time>
      </trkpt>
      <trkpt lat="49.89829" lon="2.30735">
        <ele>32</ele>
        <time>2019-04-04T07:12:04Z</time>
      </trkpt>
      <trkpt lat="49.89823" lon="2.30757">
        <ele>33</ele>
        <time>2019-04-04T07:12:16Z</time>
      </trkpt>
      <trkpt lat="49.89805" lon="2.30782">
        <ele>29</ele>
        <time>2019-04-04T07:12:37Z</time>
      </trkpt>
      <trkpt lat="49.89793" lon="2.30791">
        <ele>24</ele>
        <time>2019-04-04T07:12:53Z</time>
      </trkpt>
      <trkpt lat="49.89793" lon="2.30811">
        <ele>23</ele>
        <time>2019-04-04T07:13:09Z</time>
      </trkpt>
      <trkpt lat="49.89788" lon="2.30819">
        <ele>23</ele>
        <time>2019-04-04T07:13:17Z</time>
      </trkpt>
      <trkpt lat="49.89781" lon="2.30823">
        <ele>24</ele>
        <time>2019-04-04T07:13:24Z</time>
      </trkpt>
      <trkpt lat="49.89777" lon="2.30831">
        <ele>22</ele>
        <time>2019-04-04T07:13:31Z</time>
      </trkpt>
      <trkpt lat="49.89781" lon="2.30844">
        <ele>23</ele>
        <time>2019-04-04T07:13:39Z</time>
      </trkpt>
      <trkpt lat="49.89776" lon="2.3085">
        <ele>24</ele>
        <time>2019-04-04T07:13:47Z</time>
      </trkpt>
      <trkpt lat="49.89779" lon="2.30863">
        <ele>26</ele>
        <time>2019-04-04T07:13:56Z</time>
      </trkpt>
      <trkpt lat="49.89779" lon="2.30873">
        <ele>28</ele>
        <time>2019-04-04T07:14:03Z</time>
      </trkpt>
      <trkpt lat="49.89775" lon="2.3088">
        <ele>27</ele>
        <time>2019-04-04T07:14:07Z</time>
      </trkpt>
      <trkpt lat="49.89776" lon="2.3089">
        <ele>26</ele>
        <time>2019-04-04T07:14:39Z</time>
      </trkpt>
      <trkpt lat="49.89779" lon="2.30913">
        <ele>26</ele>
        <time>2019-04-04T07:14:52Z</time>
      </trkpt>
      <trkpt lat="49.89777" lon="2.3092">
        <ele>27</ele>
        <time>2019-04-04T07:14:57Z</time>
      </trkpt>
      <trkpt lat="49.89777" lon="2.30946">
        <ele>26</ele>
        <time>2019-04-04T07:15:16Z</time>
      </trkpt>
      <trkpt lat="49.89774" lon="2.30973">
        <ele>24</ele>
        <time>2019-04-04T07:15:31Z</time>
      </trkpt>
      <trkpt lat="49.89772" lon="2.30985">
        <ele>23</ele>
        <time>2019-04-04T07:15:36Z</time>
      </trkpt>
      <trkpt lat="49.89768" lon="2.31">
        <ele>23</ele>
        <time>2019-04-04T07:15:44Z</time>
      </trkpt>
      <trkpt lat="49.89765" lon="2.31008">
        <ele>24</ele>
        <time>2019-04-04T07:15:49Z</time>
      </trkpt>
      <trkpt lat="49.89759" lon="2.31014">
        <ele>24</ele>
        <time>2019-04-04T07:15:56Z</time>
      </trkpt>
      <trkpt lat="49.89756" lon="2.31017">
        <ele>23</ele>
        <time>2019-04-04T07:15:59Z</time>
      </trkpt>
      <trkpt lat="49.89746" lon="2.31021">
        <ele>21</ele>
        <time>2019-04-04T07:16:08Z</time>
      </trkpt>
      <trkpt lat="49.89731" lon="2.31039">
        <ele>21</ele>
        <time>2019-04-04T07:16:23Z</time>
      </trkpt>
      <trkpt lat="49.89728" lon="2.31045">
        <ele>20</ele>
        <time>2019-04-04T07:16:28Z</time>
      </trkpt>
      <trkpt lat="49.89725" lon="2.31052">
        <ele>21</ele>
        <time>2019-04-04T07:16:36Z</time>
      </trkpt>
      <trkpt lat="49.89703" lon="2.31063">
        <ele>18</ele>
        <time>2019-04-04T07:16:56Z</time>
      </trkpt>
      <trkpt lat="49.8969" lon="2.3107">
        <ele>18</ele>
        <time>2019-04-04T07:17:12Z</time>
      </trkpt>
      <trkpt lat="49.89692" lon="2.31097">
        <ele>19</ele>
        <time>2019-04-04T07:17:32Z</time>
      </trkpt>
      <trkpt lat="49.89678" lon="2.31124">
        <ele>17</ele>
        <time>2019-04-04T07:17:47Z</time>
      </trkpt>
      <trkpt lat="49.89675" lon="2.31145">
        <ele>17</ele>
        <time>2019-04-04T07:17:59Z</time>
      </trkpt>
      <trkpt lat="49.89673" lon="2.31161">
        <ele>23</ele>
        <time>2019-04-04T07:18:11Z</time>
      </trkpt>
      <trkpt lat="49.89671" lon="2.31169">
        <ele>20</ele>
        <time>2019-04-04T07:18:18Z</time>
      </trkpt>
      <trkpt lat="49.89672" lon="2.31177">
        <ele>21</ele>
        <time>2019-04-04T07:18:23Z</time>
      </trkpt>
      <trkpt lat="49.8966" lon="2.3119">
        <ele>21</ele>
        <time>2019-04-04T07:18:38Z</time>
      </trkpt>
      <trkpt lat="49.89649" lon="2.31201">
        <ele>23</ele>
        <time>2019-04-04T07:18:47Z</time>
      </trkpt>
      <trkpt lat="49.89648" lon="2.3121">
        <ele>24</ele>
        <time>2019-04-04T07:18:52Z</time>
      </trkpt>
      <trkpt lat="49.89646" lon="2.31219">
        <ele>24</ele>
        <time>2019-04-04T07:18:57Z</time>
      </trkpt>
      <trkpt lat="49.89644" lon="2.31228">
        <ele>22</ele>
        <time>2019-04-04T07:19:03Z</time>
      </trkpt>
      <trkpt lat="49.89646" lon="2.31239">
        <ele>23</ele>
        <time>2019-04-04T07:19:11Z</time>
      </trkpt>
      <trkpt lat="49.89655" lon="2.3125">
        <ele>24</ele>
        <time>2019-04-04T07:19:17Z</time>
      </trkpt>
      <trkpt lat="49.89678" lon="2.31266">
        <ele>26</ele>
        <time>2019-04-04T07:19:36Z</time>
      </trkpt>
      <trkpt lat="49.89683" lon="2.31274">
        <ele>27</ele>
        <time>2019-04-04T07:19:42Z</time>
      </trkpt>
      <trkpt lat="49.89683" lon="2.31281">
        <ele>27</ele>
        <time>2019-04-04T07:19:46Z</time>
      </trkpt>
      <trkpt lat="49.8968" lon="2.31288">
        <ele>26</ele>
        <time>2019-04-04T07:19:51Z</time>
      </trkpt>
      <trkpt lat="49.89698" lon="2.31317">
        <ele>27</ele>
        <time>2019-04-04T07:20:21Z</time>
      </trkpt>
      <trkpt lat="49.89704" lon="2.31319">
        <ele>33</ele>
        <time>2019-04-04T07:20:27Z</time>
      </trkpt>
      <trkpt lat="49.89709" lon="2.31322">
        <ele>31</ele>
        <time>2019-04-04T07:20:37Z</time>
      </trkpt>
      <trkpt lat="49.89712" lon="2.31317">
        <ele>28</ele>
        <time>2019-04-04T07:20:47Z</time>
      </trkpt>
      <trkpt lat="49.89716" lon="2.31315">
        <ele>26</ele>
        <time>2019-04-04T07:20:52Z</time>
      </trkpt>
      <trkpt lat="49.89718" lon="2.31305">
        <ele>25</ele>
        <time>2019-04-04T07:21:01Z</time>
      </trkpt>
      <trkpt lat="49.89725" lon="2.3131">
        <ele>23</ele>
        <time>2019-04-04T07:21:06Z</time>
      </trkpt>
      <trkpt lat="49.89731" lon="2.31318">
        <ele>22</ele>
        <time>2019-04-04T07:21:12Z</time>
      </trkpt>
      <trkpt lat="49.89746" lon="2.31351">
        <ele>22</ele>
        <time>2019-04-04T07:21:36Z</time>
      </trkpt>
      <trkpt lat="49.89744" lon="2.31357">
        <ele>23</ele>
        <time>2019-04-04T07:21:40Z</time>
      </trkpt>
      <trkpt lat="49.89743" lon="2.31364">
        <ele>23</ele>
        <time>2019-04-04T07:21:45Z</time>
      </trkpt>
      <trkpt lat="49.89741" lon="2.31369">
        <ele>24</ele>
        <time>2019-04-04T07:21:50Z</time>
      </trkpt>
      <trkpt lat="49.89737" lon="2.31374">
        <ele>24</ele>
        <time>2019-04-04T07:21:55Z</time>
      </trkpt>
      <trkpt lat="49.89733" lon="2.31377">
        <ele>24</ele>
        <time>2019-04-04T07:22:00Z</time>
      </trkpt>
      <trkpt lat="49.89709" lon="2.31398">
        <ele>25</ele>
        <time>2019-04-04T07:22:31Z</time>
      </trkpt>
      <trkpt lat="49.89694" lon="2.31416">
        <ele>24</ele>
        <time>2019-04-04T07:22:48Z</time>
      </trkpt>
      <trkpt lat="49.89692" lon="2.31422">
        <ele>24</ele>
        <time>2019-04-04T07:22:52Z</time>
      </trkpt>
      <trkpt lat="49.89672" lon="2.31457">
        <ele>27</ele>
        <time>2019-04-04T07:23:25Z</time>
      </trkpt>
      <trkpt lat="49.89654" lon="2.31484">
        <ele>24</ele>
        <time>2019-04-04T07:23:49Z</time>
      </trkpt>
      <trkpt lat="49.8965" lon="2.31495">
        <ele>25</ele>
        <time>2019-04-04T07:23:57Z</time>
      </trkpt>
      <trkpt lat="49.89642" lon="2.31508">
        <ele>29</ele>
        <time>2019-04-04T07:24:13Z</time>
      </trkpt>
      <trkpt lat="49.89639" lon="2.31513">
        <ele>28</ele>
        <time>2019-04-04T07:24:28Z</time>
      </trkpt>
      <trkpt lat="49.89634" lon="2.31525">
        <ele>29</ele>
        <time>2019-04-04T07:24:41Z</time>
      </trkpt>
      <trkpt lat="49.89636" lon="2.31526">
        <ele>24</ele>
        <time>2019-04-04T07:25:33Z</time>
      </trkpt>
      <trkpt lat="49.89638" lon="2.3152">
        <ele>24</ele>
        <time>2019-04-04T07:25:37Z</time>
      </trkpt>
      <trkpt lat="49.89646" lon="2.31501">
        <ele>24</ele>
        <time>2019-04-04T07:25:52Z</time>
      </trkpt>
      <trkpt lat="49.89648" lon="2.31496">
        <ele>25</ele>
        <time>2019-04-04T07:25:57Z</time>
      </trkpt>
      <trkpt lat="49.89654" lon="2.31484">
        <ele>25</ele>
        <time>2019-04-04T07:26:05Z</time>
      </trkpt>
      <trkpt lat="49.89656" lon="2.31477">
        <ele>25</ele>
        <time>2019-04-04T07:26:10Z</time>
      </trkpt>
      <trkpt lat="49.8966" lon="2.3147">
        <ele>26</ele>
        <time>2019-04-04T07:26:18Z</time>
      </trkpt>
      <trkpt lat="49.89672" lon="2.31448">
        <ele>24</ele>
        <time>2019-04-04T07:26:34Z</time>
      </trkpt>
      <trkpt lat="49.89674" lon="2.3144">
        <ele>26</ele>
        <time>2019-04-04T07:26:38Z</time>
      </trkpt>
      <trkpt lat="49.89681" lon="2.31428">
        <ele>27</ele>
        <time>2019-04-04T07:26:47Z</time>
      </trkpt>
      <trkpt lat="49.89696" lon="2.31407">
        <ele>27</ele>
        <time>2019-04-04T07:27:09Z</time>
      </trkpt>
      <trkpt lat="49.89708" lon="2.31395">
        <ele>28</ele>
        <time>2019-04-04T07:27:20Z</time>
      </trkpt>
      <trkpt lat="49.89734" lon="2.31369">
        <ele>26</ele>
        <time>2019-04-04T07:27:46Z</time>
      </trkpt>
      <trkpt lat="49.89739" lon="2.31358">
        <ele>23</ele>
        <time>2019-04-04T07:27:55Z</time>
      </trkpt>
      <trkpt lat="49.89741" lon="2.3135">
        <ele>23</ele>
        <time>2019-04-04T07:28:01Z</time>
      </trkpt>
      <trkpt lat="49.89739" lon="2.31341">
        <ele>23</ele>
        <time>2019-04-04T07:28:04Z</time>
      </trkpt>
      <trkpt lat="49.89731" lon="2.3132">
        <ele>24</ele>
        <time>2019-04-04T07:28:21Z</time>
      </trkpt>
      <trkpt lat="49.89728" lon="2.31316">
        <ele>24</ele>
        <time>2019-04-04T07:28:25Z</time>
      </trkpt>
      <trkpt lat="49.89724" lon="2.31313">
        <ele>24</ele>
        <time>2019-04-04T07:28:30Z</time>
      </trkpt>
      <trkpt lat="49.89719" lon="2.31311">
        <ele>26</ele>
        <time>2019-04-04T07:28:34Z</time>
      </trkpt>
      <trkpt lat="49.89716" lon="2.31314">
        <ele>22</ele>
        <time>2019-04-04T07:28:44Z</time>
      </trkpt>
      <trkpt lat="49.89708" lon="2.3132">
        <ele>21</ele>
        <time>2019-04-04T07:28:55Z</time>
      </trkpt>
      <trkpt lat="49.89694" lon="2.31314">
        <ele>19</ele>
        <time>2019-04-04T07:29:07Z</time>
      </trkpt>
      <trkpt lat="49.89682" lon="2.31309">
        <ele>17</ele>
        <time>2019-04-04T07:29:15Z</time>
      </trkpt>
      <trkpt lat="49.89673" lon="2.31293">
        <ele>20</ele>
        <time>2019-04-04T07:29:27Z</time>
      </trkpt>
      <trkpt lat="49.89673" lon="2.31274">
        <ele>21</ele>
        <time>2019-04-04T07:29:38Z</time>
      </trkpt>
      <trkpt lat="49.89665" lon="2.31259">
        <ele>21</ele>
        <time>2019-04-04T07:29:49Z</time>
      </trkpt>
      <trkpt lat="49.89653" lon="2.3125">
        <ele>21</ele>
        <time>2019-04-04T07:30:01Z</time>
      </trkpt>
      <trkpt lat="49.89645" lon="2.31236">
        <ele>25</ele>
        <time>2019-04-04T07:30:12Z</time>
      </trkpt>
      <trkpt lat="49.89646" lon="2.31213">
        <ele>25</ele>
        <time>2019-04-04T07:30:25Z</time>
      </trkpt>
      <trkpt lat="49.89657" lon="2.31199">
        <ele>24</ele>
        <time>2019-04-04T07:30:37Z</time>
      </trkpt>
      <trkpt lat="49.89667" lon="2.31185">
        <ele>18</ele>
        <time>2019-04-04T07:30:51Z</time>
      </trkpt>
      <trkpt lat="49.89674" lon="2.31168">
        <ele>20</ele>
        <time>2019-04-04T07:31:14Z</time>
      </trkpt>
      <trkpt lat="49.89686" lon="2.31132">
        <ele>28</ele>
        <time>2019-04-04T07:31:43Z</time>
      </trkpt>
      <trkpt lat="49.89669" lon="2.31119">
        <ele>27</ele>
        <time>2019-04-04T07:32:00Z</time>
      </trkpt>
      <trkpt lat="49.89664" lon="2.31116">
        <ele>27</ele>
        <time>2019-04-04T07:32:05Z</time>
      </trkpt>
      <trkpt lat="49.89652" lon="2.31109">
        <ele>25</ele>
        <time>2019-04-04T07:32:16Z</time>
      </trkpt>
      <trkpt lat="49.89644" lon="2.31104">
        <ele>25</ele>
        <time>2019-04-04T07:32:22Z</time>
      </trkpt>
      <trkpt lat="49.89612" lon="2.31083">
        <ele>18</ele>
        <time>2019-04-04T07:32:55Z</time>
      </trkpt>
      <trkpt lat="49.89595" lon="2.31069">
        <ele>15</ele>
        <time>2019-04-04T07:33:11Z</time>
      </trkpt>
      <trkpt lat="49.89561" lon="2.31043">
        <ele>16</ele>
        <time>2019-04-04T07:33:44Z</time>
      </trkpt>
      <trkpt lat="49.89548" lon="2.31034">
        <ele>14</ele>
        <time>2019-04-04T07:33:57Z</time>
      </trkpt>
      <trkpt lat="49.89536" lon="2.3102">
        <ele>16</ele>
        <time>2019-04-04T07:34:15Z</time>
      </trkpt>
      <trkpt lat="49.89522" lon="2.31021">
        <ele>18</ele>
        <time>2019-04-04T07:34:34Z</time>
      </trkpt>
      <trkpt lat="49.89515" lon="2.31038">
        <ele>23</ele>
        <time>2019-04-04T07:35:04Z</time>
      </trkpt>
      <trkpt lat="49.8951" lon="2.3104">
        <ele>25</ele>
        <time>2019-04-04T07:35:09Z</time>
      </trkpt>
      <trkpt lat="49.89506" lon="2.31053">
        <ele>27</ele>
        <time>2019-04-04T07:35:20Z</time>
      </trkpt>
      <trkpt lat="49.89505" lon="2.31061">
        <ele>27</ele>
        <time>2019-04-04T07:35:33Z</time>
      </trkpt>
      <trkpt lat="49.89504" lon="2.31068">
        <ele>25</ele>
        <time>2019-04-04T07:36:11Z</time>
      </trkpt>
      <trkpt lat="49.89503" lon="2.31094">
        <ele>24</ele>
        <time>2019-04-04T07:36:25Z</time>
      </trkpt>
      <trkpt lat="49.89501" lon="2.31101">
        <ele>22</ele>
        <time>2019-04-04T07:36:31Z</time>
      </trkpt>
      <trkpt lat="49.89498" lon="2.31108">
        <ele>22</ele>
        <time>2019-04-04T07:36:36Z</time>
      </trkpt>
      <trkpt lat="49.89496" lon="2.31162">
        <ele>20</ele>
        <time>2019-04-04T07:37:07Z</time>
      </trkpt>
      <trkpt lat="49.89493" lon="2.31221">
        <ele>21</ele>
        <time>2019-04-04T07:37:41Z</time>
      </trkpt>
      <trkpt lat="49.89486" lon="2.31264">
        <ele>23</ele>
        <time>2019-04-04T07:38:08Z</time>
      </trkpt>
      <trkpt lat="49.89469" lon="2.31316">
        <ele>20</ele>
        <time>2019-04-04T07:38:39Z</time>
      </trkpt>
      <trkpt lat="49.89466" lon="2.31322">
        <ele>20</ele>
        <time>2019-04-04T07:38:44Z</time>
      </trkpt>
      <trkpt lat="49.89462" lon="2.31342">
        <ele>21</ele>
        <time>2019-04-04T07:38:59Z</time>
      </trkpt>
      <trkpt lat="49.89459" lon="2.31346">
        <ele>21</ele>
        <time>2019-04-04T07:39:02Z</time>
      </trkpt>
      <trkpt lat="49.89445" lon="2.31402">
        <ele>21</ele>
        <time>2019-04-04T07:39:35Z</time>
      </trkpt>
      <trkpt lat="49.89443" lon="2.31417">
        <ele>20</ele>
        <time>2019-04-04T07:39:44Z</time>
      </trkpt>
      <trkpt lat="49.89442" lon="2.31424">
        <ele>17</ele>
        <time>2019-04-04T07:39:49Z</time>
      </trkpt>
      <trkpt lat="49.89438" lon="2.31462">
        <ele>18</ele>
        <time>2019-04-04T07:40:10Z</time>
      </trkpt>
      <trkpt lat="49.8944" lon="2.31469">
        <ele>20</ele>
        <time>2019-04-04T07:40:14Z</time>
      </trkpt>
      <trkpt lat="49.8944" lon="2.31485">
        <ele>20</ele>
        <time>2019-04-04T07:40:22Z</time>
      </trkpt>
      <trkpt lat="49.8944" lon="2.31499">
        <ele>20</ele>
        <time>2019-04-04T07:40:29Z</time>
      </trkpt>
      <trkpt lat="49.89439" lon="2.3152">
        <ele>18</ele>
        <time>2019-04-04T07:40:42Z</time>
      </trkpt>
      <trkpt lat="49.89437" lon="2.31571">
        <ele>21</ele>
        <time>2019-04-04T07:41:12Z</time>
      </trkpt>
      <trkpt lat="49.89441" lon="2.31589">
        <ele>21</ele>
        <time>2019-04-04T07:41:23Z</time>
      </trkpt>
      <trkpt lat="49.89445" lon="2.31604">
        <ele>27</ele>
        <time>2019-04-04T07:41:36Z</time>
      </trkpt>
      <trkpt lat="49.89442" lon="2.31612">
        <ele>26</ele>
        <time>2019-04-04T07:41:46Z</time>
      </trkpt>
      <trkpt lat="49.89444" lon="2.31616">
        <ele>23</ele>
        <time>2019-04-04T07:42:20Z</time>
      </trkpt>
      <trkpt lat="49.8944" lon="2.31618">
        <ele>23</ele>
        <time>2019-04-04T07:42:24Z</time>
      </trkpt>
      <trkpt lat="49.89436" lon="2.31647">
        <ele>22</ele>
        <time>2019-04-04T07:42:42Z</time>
      </trkpt>
      <trkpt lat="49.89438" lon="2.31654">
        <ele>22</ele>
        <time>2019-04-04T07:42:46Z</time>
      </trkpt>
      <trkpt lat="49.89437" lon="2.31661">
        <ele>22</ele>
        <time>2019-04-04T07:42:50Z</time>
      </trkpt>
      <trkpt lat="49.89438" lon="2.31668">
        <ele>21</ele>
        <time>2019-04-04T07:42:54Z</time>
      </trkpt>
      <trkpt lat="49.89437" lon="2.31675">
        <ele>21</ele>
        <time>2019-04-04T07:42:59Z</time>
      </trkpt>
      <trkpt lat="49.89432" lon="2.31732">
        <ele>23</ele>
        <time>2019-04-04T07:43:31Z</time>
      </trkpt>
      <trkpt lat="49.89418" lon="2.31777">
        <ele>22</ele>
        <time>2019-04-04T07:44:03Z</time>
      </trkpt>
      <trkpt lat="49.89413" lon="2.31796">
        <ele>21</ele>
        <time>2019-04-04T07:44:17Z</time>
      </trkpt>
      <trkpt lat="49.89414" lon="2.31808">
        <ele>20</ele>
        <time>2019-04-04T07:45:17Z</time>
      </trkpt>
      <trkpt lat="49.89411" lon="2.31813">
        <ele>22</ele>
        <time>2019-04-04T07:45:26Z</time>
      </trkpt>
      <trkpt lat="49.89409" lon="2.31828">
        <ele>21</ele>
        <time>2019-04-04T07:45:37Z</time>
      </trkpt>
      <trkpt lat="49.89408" lon="2.31835">
        <ele>19</ele>
        <time>2019-04-04T07:45:42Z</time>
      </trkpt>
      <trkpt lat="49.89409" lon="2.31845">
        <ele>19</ele>
        <time>2019-04-04T07:45:48Z</time>
      </trkpt>
      <trkpt lat="49.8941" lon="2.31852">
        <ele>19</ele>
        <time>2019-04-04T07:45:55Z</time>
      </trkpt>
      <trkpt lat="49.89409" lon="2.31861">
        <ele>18</ele>
        <time>2019-04-04T07:46:35Z</time>
      </trkpt>
      <trkpt lat="49.89405" lon="2.31862">
        <ele>18</ele>
        <time>2019-04-04T07:46:44Z</time>
      </trkpt>
      <trkpt lat="49.8941" lon="2.31894">
        <ele>20</ele>
        <time>2019-04-04T07:47:11Z</time>
      </trkpt>
      <trkpt lat="49.89413" lon="2.31915">
        <ele>19</ele>
        <time>2019-04-04T07:47:24Z</time>
      </trkpt>
      <trkpt lat="49.89415" lon="2.31934">
        <ele>21</ele>
        <time>2019-04-04T07:48:12Z</time>
      </trkpt>
      <trkpt lat="49.89415" lon="2.31949">
        <ele>19</ele>
        <time>2019-04-04T07:48:23Z</time>
      </trkpt>
      <trkpt lat="49.89415" lon="2.31956">
        <ele>19</ele>
        <time>2019-04-04T07:48:28Z</time>
      </trkpt>
      <trkpt lat="49.89415" lon="2.31966">
        <ele>19</ele>
        <time>2019-04-04T07:48:34Z</time>
      </trkpt>
      <trkpt lat="49.89416" lon="2.31974">
        <ele>21</ele>
        <time>2019-04-04T07:48:38Z</time>
      </trkpt>
      <trkpt lat="49.89416" lon="2.31983">
        <ele>21</ele>
        <time>2019-04-04T07:48:43Z</time>
      </trkpt>
      <trkpt lat="49.89418" lon="2.31992">
        <ele>24</ele>
        <time>2019-04-04T07:48:49Z</time>
      </trkpt>
      <trkpt lat="49.89416" lon="2.32012">
        <ele>25</ele>
        <time>2019-04-04T07:48:59Z</time>
      </trkpt>
      <trkpt lat="49.89416" lon="2.32021">
        <ele>25</ele>
        <time>2019-04-04T07:49:04Z</time>
      </trkpt>
      <trkpt lat="49.89411" lon="2.32059">
        <ele>25</ele>
        <time>2019-04-04T07:49:27Z</time>
      </trkpt>
      <trkpt lat="49.89412" lon="2.32074">
        <ele>25</ele>
        <time>2019-04-04T07:49:36Z</time>
      </trkpt>
      <trkpt lat="49.89405" lon="2.32109">
        <ele>23</ele>
        <time>2019-04-04T07:49:58Z</time>
      </trkpt>
      <trkpt lat="49.89399" lon="2.32128">
        <ele>21</ele>
        <time>2019-04-04T07:51:31Z</time>
      </trkpt>
      <trkpt lat="49.89391" lon="2.32167">
        <ele>22</ele>
        <time>2019-04-04T07:51:58Z</time>
      </trkpt>
      <trkpt lat="49.8939" lon="2.32174">
        <ele>23</ele>
        <time>2019-04-04T07:52:18Z</time>
      </trkpt>
      <trkpt lat="49.89388" lon="2.32181">
        <ele>23</ele>
        <time>2019-04-04T07:52:23Z</time>
      </trkpt>
      <trkpt lat="49.89386" lon="2.32201">
        <ele>22</ele>
        <time>2019-04-04T07:52:34Z</time>
      </trkpt>
      <trkpt lat="49.89385" lon="2.32208">
        <ele>24</ele>
        <time>2019-04-04T07:52:38Z</time>
      </trkpt>
      <trkpt lat="49.89386" lon="2.32226">
        <ele>21</ele>
        <time>2019-04-04T07:52:50Z</time>
      </trkpt>
      <trkpt lat="49.89384" lon="2.32277">
        <ele>21</ele>
        <time>2019-04-04T07:53:20Z</time>
      </trkpt>
      <trkpt lat="49.89384" lon="2.32297">
        <ele>21</ele>
        <time>2019-04-04T07:53:32Z</time>
      </trkpt>
      <trkpt lat="49.89384" lon="2.32311">
        <ele>19</ele>
        <time>2019-04-04T07:53:44Z</time>
      </trkpt>
      <trkpt lat="49.89383" lon="2.32317">
        <ele>19</ele>
        <time>2019-04-04T07:53:50Z</time>
      </trkpt>
      <trkpt lat="49.89383" lon="2.32338">
        <ele>22</ele>
        <time>2019-04-04T07:54:02Z</time>
      </trkpt>
      <trkpt lat="49.89381" lon="2.32352">
        <ele>21</ele>
        <time>2019-04-04T07:54:09Z</time>
      </trkpt>
      <trkpt lat="49.89377" lon="2.32365">
        <ele>21</ele>
        <time>2019-04-04T07:54:18Z</time>
      </trkpt>
      <trkpt lat="49.89376" lon="2.3238">
        <ele>22</ele>
        <time>2019-04-04T07:54:32Z</time>
      </trkpt>
      <trkpt lat="49.89377" lon="2.32373">
        <ele>22</ele>
        <time>2019-04-04T07:55:24Z</time>
      </trkpt>
      <trkpt lat="49.89378" lon="2.32367">
        <ele>22</ele>
        <time>2019-04-04T07:55:28Z</time>
      </trkpt>
      <trkpt lat="49.8938" lon="2.32361">
        <ele>30</ele>
        <time>2019-04-04T07:56:02Z</time>
      </trkpt>
      <trkpt lat="49.89381" lon="2.32351">
        <ele>30</ele>
        <time>2019-04-04T07:56:08Z</time>
      </trkpt>
      <trkpt lat="49.89383" lon="2.32301">
        <ele>24</ele>
        <time>2019-04-04T07:56:39Z</time>
      </trkpt>
      <trkpt lat="49.89382" lon="2.32253">
        <ele>23</ele>
        <time>2019-04-04T07:57:09Z</time>
      </trkpt>
      <trkpt lat="49.89385" lon="2.32188">
        <ele>23</ele>
        <time>2019-04-04T07:57:49Z</time>
      </trkpt>
      <trkpt lat="49.89394" lon="2.32133">
        <ele>24</ele>
        <time>2019-04-04T07:58:21Z</time>
      </trkpt>
      <trkpt lat="49.89405" lon="2.32084">
        <ele>27</ele>
        <time>2019-04-04T07:58:52Z</time>
      </trkpt>
      <trkpt lat="49.89411" lon="2.32034">
        <ele>28</ele>
        <time>2019-04-04T07:59:22Z</time>
      </trkpt>
      <trkpt lat="49.89411" lon="2.32026">
        <ele>29</ele>
        <time>2019-04-04T07:59:26Z</time>
      </trkpt>
      <trkpt lat="49.89414" lon="2.32022">
        <ele>27</ele>
        <time>2019-04-04T07:59:32Z</time>
      </trkpt>
      <trkpt lat="49.89416" lon="2.31971">
        <ele>27</ele>
        <time>2019-04-04T08:00:02Z</time>
      </trkpt>
      <trkpt lat="49.89413" lon="2.3193">
        <ele>25</ele>
        <time>2019-04-04T08:00:32Z</time>
      </trkpt>
      <trkpt lat="49.89413" lon="2.31923">
        <ele>23</ele>
        <time>2019-04-04T08:00:36Z</time>
      </trkpt>
      <trkpt lat="49.89409" lon="2.31873">
        <ele>21</ele>
        <time>2019-04-04T08:01:07Z</time>
      </trkpt>
      <trkpt lat="49.89406" lon="2.31863">
        <ele>22</ele>
        <time>2019-04-04T08:01:15Z</time>
      </trkpt>
      <trkpt lat="49.89406" lon="2.31808">
        <ele>26</ele>
        <time>2019-04-04T08:01:46Z</time>
      </trkpt>
      <trkpt lat="49.89407" lon="2.318">
        <ele>26</ele>
        <time>2019-04-04T08:01:50Z</time>
      </trkpt>
      <trkpt lat="49.89408" lon="2.31793">
        <ele>26</ele>
        <time>2019-04-04T08:01:54Z</time>
      </trkpt>
      <trkpt lat="49.89419" lon="2.31746">
        <ele>28</ele>
        <time>2019-04-04T08:02:25Z</time>
      </trkpt>
      <trkpt lat="49.89422" lon="2.3172">
        <ele>29</ele>
        <time>2019-04-04T08:02:55Z</time>
      </trkpt>
      <trkpt lat="49.89428" lon="2.31665">
        <ele>33</ele>
        <time>2019-04-04T08:03:27Z</time>
      </trkpt>
      <trkpt lat="49.89429" lon="2.31613">
        <ele>37</ele>
        <time>2019-04-04T08:03:56Z</time>
      </trkpt>
      <trkpt lat="49.89434" lon="2.31609">
        <ele>35</ele>
        <time>2019-04-04T08:04:01Z</time>
      </trkpt>
      <trkpt lat="49.89438" lon="2.31609">
        <ele>32</ele>
        <time>2019-04-04T08:04:05Z</time>
      </trkpt>
      <trkpt lat="49.89439" lon="2.31605">
        <ele>25</ele>
        <time>2019-04-04T08:05:03Z</time>
      </trkpt>
      <trkpt lat="49.89437" lon="2.31591">
        <ele>24</ele>
        <time>2019-04-04T08:05:11Z</time>
      </trkpt>
      <trkpt lat="49.89437" lon="2.31584">
        <ele>24</ele>
        <time>2019-04-04T08:05:16Z</time>
      </trkpt>
      <trkpt lat="49.89436" lon="2.31578">
        <ele>22</ele>
        <time>2019-04-04T08:05:20Z</time>
      </trkpt>
      <trkpt lat="49.89436" lon="2.31528">
        <ele>23</ele>
        <time>2019-04-04T08:05:52Z</time>
      </trkpt>
      <trkpt lat="49.89436" lon="2.31477">
        <ele>25</ele>
        <time>2019-04-04T08:06:22Z</time>
      </trkpt>
      <trkpt lat="49.89436" lon="2.31454">
        <ele>26</ele>
        <time>2019-04-04T08:06:48Z</time>
      </trkpt>
      <trkpt lat="49.89441" lon="2.31396">
        <ele>25</ele>
        <time>2019-04-04T08:07:21Z</time>
      </trkpt>
      <trkpt lat="49.89445" lon="2.31365">
        <ele>30</ele>
        <time>2019-04-04T08:07:37Z</time>
      </trkpt>
      <trkpt lat="49.8945" lon="2.31353">
        <ele>28</ele>
        <time>2019-04-04T08:07:45Z</time>
      </trkpt>
      <trkpt lat="49.89458" lon="2.31328">
        <ele>29</ele>
        <time>2019-04-04T08:08:04Z</time>
      </trkpt>
      <trkpt lat="49.89457" lon="2.31322">
        <ele>34</ele>
        <time>2019-04-04T08:08:24Z</time>
      </trkpt>
      <trkpt lat="49.89461" lon="2.31314">
        <ele>33</ele>
        <time>2019-04-04T08:08:48Z</time>
      </trkpt>
      <trkpt lat="49.89463" lon="2.31307">
        <ele>32</ele>
        <time>2019-04-04T08:08:52Z</time>
      </trkpt>
      <trkpt lat="49.89472" lon="2.31289">
        <ele>30</ele>
        <time>2019-04-04T08:09:09Z</time>
      </trkpt>
      <trkpt lat="49.89481" lon="2.31241">
        <ele>32</ele>
        <time>2019-04-04T08:09:41Z</time>
      </trkpt>
      <trkpt lat="49.89482" lon="2.31234">
        <ele>32</ele>
        <time>2019-04-04T08:09:46Z</time>
      </trkpt>
      <trkpt lat="49.89486" lon="2.31226">
        <ele>31</ele>
        <time>2019-04-04T08:09:53Z</time>
      </trkpt>
      <trkpt lat="49.89491" lon="2.31224">
        <ele>28</ele>
        <time>2019-04-04T08:10:33Z</time>
      </trkpt>
      <trkpt lat="49.89491" lon="2.31217">
        <ele>27</ele>
        <time>2019-04-04T08:10:36Z</time>
      </trkpt>
      <trkpt lat="49.89492" lon="2.31191">
        <ele>22</ele>
        <time>2019-04-04T08:10:50Z</time>
      </trkpt>
      <trkpt lat="49.89492" lon="2.31182">
        <ele>22</ele>
        <time>2019-04-04T08:10:55Z</time>
      </trkpt>
      <trkpt lat="49.89496" lon="2.31122">
        <ele>22</ele>
        <time>2019-04-04T08:11:37Z</time>
      </trkpt>
      <trkpt lat="49.89494" lon="2.31097">
        <ele>24</ele>
        <time>2019-04-04T08:11:50Z</time>
      </trkpt>
      <trkpt lat="49.89503" lon="2.31063">
        <ele>26</ele>
        <time>2019-04-04T08:12:14Z</time>
      </trkpt>
      <trkpt lat="49.89506" lon="2.31046">
        <ele>26</ele>
        <time>2019-04-04T08:12:24Z</time>
      </trkpt>
      <trkpt lat="49.89513" lon="2.31034">
        <ele>25</ele>
        <time>2019-04-04T08:12:39Z</time>
      </trkpt>
      <trkpt lat="49.89515" lon="2.31014">
        <ele>25</ele>
        <time>2019-04-04T08:12:53Z</time>
      </trkpt>
      <trkpt lat="49.89519" lon="2.30984">
        <ele>31</ele>
        <time>2019-04-04T08:13:09Z</time>
      </trkpt>
      <trkpt lat="49.8952" lon="2.30951">
        <ele>34</ele>
        <time>2019-04-04T08:13:26Z</time>
      </trkpt>
      <trkpt lat="49.89531" lon="2.30948">
        <ele>30</ele>
        <time>2019-04-04T08:13:34Z</time>
      </trkpt>
      <trkpt lat="49.89534" lon="2.30939">
        <ele>32</ele>
        <time>2019-04-04T08:13:40Z</time>
      </trkpt>
      <trkpt lat="49.89539" lon="2.30941">
        <ele>32</ele>
        <time>2019-04-04T08:13:45Z</time>
      </trkpt>
      <trkpt lat="49.89542" lon="2.30958">
        <ele>28</ele>
        <time>2019-04-04T08:14:30Z</time>
      </trkpt>
      <trkpt lat="49.89537" lon="2.30962">
        <ele>29</ele>
        <time>2019-04-04T08:14:37Z</time>
      </trkpt>
      <trkpt lat="49.89505" lon="2.30939">
        <ele>32</ele>
        <time>2019-04-04T08:15:07Z</time>
      </trkpt>
      <trkpt lat="49.89496" lon="2.30932">
        <ele>33</ele>
        <time>2019-04-04T08:15:16Z</time>
      </trkpt>
      <trkpt lat="49.89488" lon="2.30932">
        <ele>35</ele>
        <time>2019-04-04T08:15:21Z</time>
      </trkpt>
      <trkpt lat="49.8948" lon="2.30922">
        <ele>40</ele>
        <time>2019-04-04T08:15:30Z</time>
      </trkpt>
      <trkpt lat="49.89475" lon="2.30912">
        <ele>42</ele>
        <time>2019-04-04T08:15:39Z</time>
      </trkpt>
      <trkpt lat="49.8947" lon="2.30904">
        <ele>38</ele>
        <time>2019-04-04T08:16:22Z</time>
      </trkpt>
      <trkpt lat="49.89455" lon="2.30906">
        <ele>39</ele>
        <time>2019-04-04T08:16:33Z</time>
      </trkpt>
      <trkpt lat="49.89447" lon="2.30906">
        <ele>37</ele>
        <time>2019-04-04T08:17:04Z</time>
      </trkpt>
      <trkpt lat="49.8944" lon="2.30904">
        <ele>38</ele>
        <time>2019-04-04T08:17:09Z</time>
      </trkpt>
      <trkpt lat="49.89434" lon="2.30897">
        <ele>39</ele>
        <time>2019-04-04T08:17:15Z</time>
      </trkpt>
      <trkpt lat="49.8942" lon="2.30886">
        <ele>42</ele>
        <time>2019-04-04T08:17:27Z</time>
      </trkpt>
      <trkpt lat="49.89415" lon="2.30881">
        <ele>45</ele>
        <time>2019-04-04T08:17:32Z</time>
      </trkpt>
      <trkpt lat="49.89411" lon="2.30877">
        <ele>45</ele>
        <time>2019-04-04T08:17:36Z</time>
      </trkpt>
      <trkpt lat="49.89372" lon="2.30846">
        <ele>42</ele>
        <time>2019-04-04T08:18:20Z</time>
      </trkpt>
      <trkpt lat="49.8936" lon="2.30837">
        <ele>43</ele>
        <time>2019-04-04T08:18:30Z</time>
      </trkpt>
      <trkpt lat="49.89345" lon="2.30821">
        <ele>46</ele>
        <time>2019-04-04T08:18:46Z</time>
      </trkpt>
      <trkpt lat="49.89334" lon="2.30808">
        <ele>41</ele>
        <time>2019-04-04T08:19:10Z</time>
      </trkpt>
      <trkpt lat="49.8932" lon="2.30802">
        <ele>40</ele>
        <time>2019-04-04T08:19:22Z</time>
      </trkpt>
      <trkpt lat="49.89305" lon="2.30794">
        <ele>43</ele>
        <time>2019-04-04T08:19:35Z</time>
      </trkpt>
      <trkpt lat="49.89293" lon="2.3078">
        <ele>43</ele>
        <time>2019-04-04T08:19:50Z</time>
      </trkpt>
      <trkpt lat="49.89278" lon="2.30771">
        <ele>48</ele>
        <time>2019-04-04T08:20:04Z</time>
      </trkpt>
      <trkpt lat="49.89264" lon="2.30762">
        <ele>46</ele>
        <time>2019-04-04T08:20:20Z</time>
      </trkpt>
      <trkpt lat="49.89251" lon="2.30752">
        <ele>44</ele>
        <time>2019-04-04T08:20:31Z</time>
      </trkpt>
      <trkpt lat="49.89238" lon="2.30747">
        <ele>46</ele>
        <time>2019-04-04T08:20:43Z</time>
      </trkpt>
      <trkpt lat="49.89225" lon="2.30739">
        <ele>54</ele>
        <time>2019-04-04T08:20:53Z</time>
      </trkpt>
      <trkpt lat="49.89211" lon="2.30734">
        <ele>59</ele>
        <time>2019-04-04T08:21:04Z</time>
      </trkpt>
      <trkpt lat="49.89197" lon="2.30728">
        <ele>66</ele>
        <time>2019-04-04T08:21:16Z</time>
      </trkpt>
      <trkpt lat="49.89183" lon="2.30725">
        <ele>68</ele>
        <time>2019-04-04T08:21:27Z</time>
      </trkpt>
      <trkpt lat="49.89172" lon="2.30711">
        <ele>66</ele>
        <time>2019-04-04T08:21:43Z</time>
      </trkpt>
      <trkpt lat="49.8916" lon="2.30698">
        <ele>60</ele>
        <time>2019-04-04T08:21:58Z</time>
      </trkpt>
      <trkpt lat="49.89146" lon="2.30695">
        <ele>61</ele>
        <time>2019-04-04T08:22:08Z</time>
      </trkpt>
      <trkpt lat="49.89135" lon="2.30684">
        <ele>65</ele>
        <time>2019-04-04T08:22:18Z</time>
      </trkpt>
      <trkpt lat="49.8912" lon="2.30679">
        <ele>68</ele>
        <time>2019-04-04T08:22:30Z</time>
      </trkpt>
      <trkpt lat="49.89106" lon="2.30671">
        <ele>75</ele>
        <time>2019-04-04T08:22:43Z</time>
      </trkpt>
      <trkpt lat="49.89094" lon="2.30664">
        <ele>76</ele>
        <time>2019-04-04T08:22:54Z</time>
      </trkpt>
      <trkpt lat="49.89078" lon="2.30658">
        <ele>81</ele>
        <time>2019-04-04T08:23:07Z</time>
      </trkpt>
      <trkpt lat="49.8908" lon="2.30637">
        <ele>74</ele>
        <time>2019-04-04T08:23:18Z</time>
      </trkpt>
      <trkpt lat="49.89067" lon="2.30629">
        <ele>74</ele>
        <time>2019-04-04T08:23:31Z</time>
      </trkpt>
      <trkpt lat="49.89064" lon="2.30619">
        <ele>62</ele>
        <time>2019-04-04T08:23:48Z</time>
      </trkpt>
      <trkpt lat="49.89059" lon="2.30613">
        <ele>44</ele>
        <time>2019-04-04T08:24:07Z</time>
      </trkpt>
      <trkpt lat="49.89052" lon="2.30612">
        <ele>43</ele>
        <time>2019-04-04T08:24:12Z</time>
      </trkpt>
      <trkpt lat="49.89043" lon="2.3061">
        <ele>47</ele>
        <time>2019-04-04T08:24:19Z</time>
      </trkpt>
      <trkpt lat="49.89041" lon="2.30599">
        <ele>46</ele>
        <time>2019-04-04T08:24:26Z</time>
      </trkpt>
      <trkpt lat="49.89035" lon="2.30596">
        <ele>46</ele>
        <time>2019-04-04T08:24:31Z</time>
      </trkpt>
      <trkpt lat="49.89028" lon="2.30598">
        <ele>49</ele>
        <time>2019-04-04T08:24:35Z</time>
      </trkpt>
      <trkpt lat="49.89021" lon="2.30596">
        <ele>51</ele>
        <time>2019-04-04T08:24:40Z</time>
      </trkpt>
      <trkpt lat="49.89007" lon="2.3058">
        <ele>53</ele>
        <time>2019-04-04T08:24:57Z</time>
      </trkpt>
      <trkpt lat="49.88994" lon="2.3057">
        <ele>58</ele>
        <time>2019-04-04T08:25:12Z</time>
      </trkpt>
      <trkpt lat="49.88985" lon="2.30555">
        <ele>54</ele>
        <time>2019-04-04T08:25:30Z</time>
      </trkpt>
      <trkpt lat="49.88973" lon="2.30567">
        <ele>55</ele>
        <time>2019-04-04T08:28:06Z</time>
      </trkpt>
      <trkpt lat="49.88962" lon="2.30552">
        <ele>54</ele>
        <time>2019-04-04T08:28:47Z</time>
      </trkpt>
      <trkpt lat="49.8894" lon="2.30522">
        <ele>33</ele>
        <time>2019-04-04T08:29:15Z</time>
      </trkpt>
      <trkpt lat="49.88922" lon="2.30511">
        <ele>34</ele>
        <time>2019-04-04T08:29:31Z</time>
      </trkpt>
      <trkpt lat="49.8891" lon="2.30509">
        <ele>36</ele>
        <time>2019-04-04T08:29:39Z</time>
      </trkpt>
      <trkpt lat="49.88905" lon="2.305">
        <ele>38</ele>
        <time>2019-04-04T08:29:48Z</time>
      </trkpt>
      <trkpt lat="49.88895" lon="2.30494">
        <ele>37</ele>
        <time>2019-04-04T08:29:57Z</time>
      </trkpt>
      <trkpt lat="49.88889" lon="2.30478">
        <ele>37</ele>
        <time>2019-04-04T08:30:06Z</time>
      </trkpt>
      <trkpt lat="49.88878" lon="2.30439">
        <ele>37</ele>
        <time>2019-04-04T08:30:26Z</time>
      </trkpt>
      <trkpt lat="49.88875" lon="2.3042">
        <ele>42</ele>
        <time>2019-04-04T08:30:36Z</time>
      </trkpt>
      <trkpt lat="49.88874" lon="2.30397">
        <ele>44</ele>
        <time>2019-04-04T08:30:47Z</time>
      </trkpt>
      <trkpt lat="49.8887" lon="2.30376">
        <ele>50</ele>
        <time>2019-04-04T08:30:57Z</time>
      </trkpt>
      <trkpt lat="49.88868" lon="2.30355">
        <ele>53</ele>
        <time>2019-04-04T08:31:07Z</time>
      </trkpt>
      <trkpt lat="49.88868" lon="2.30333">
        <ele>60</ele>
        <time>2019-04-04T08:31:21Z</time>
      </trkpt>
      <trkpt lat="49.88867" lon="2.30311">
        <ele>61</ele>
        <time>2019-04-04T08:31:31Z</time>
      </trkpt>
      <trkpt lat="49.88878" lon="2.30304">
        <ele>56</ele>
        <time>2019-04-04T08:32:36Z</time>
      </trkpt>
      <trkpt lat="49.88877" lon="2.30285">
        <ele>53</ele>
        <time>2019-04-04T08:33:13Z</time>
      </trkpt>
      <trkpt lat="49.88864" lon="2.3028">
        <ele>50</ele>
        <time>2019-04-04T08:33:55Z</time>
      </trkpt>
      <trkpt lat="49.88842" lon="2.3027">
        <ele>37</ele>
        <time>2019-04-04T08:34:15Z</time>
      </trkpt>
      <trkpt lat="49.88815" lon="2.30242">
        <ele>36</ele>
        <time>2019-04-04T08:34:45Z</time>
      </trkpt>
      <trkpt lat="49.88803" lon="2.30235">
        <ele>39</ele>
        <time>2019-04-04T08:34:55Z</time>
      </trkpt>
      <trkpt lat="49.88802" lon="2.30226">
        <ele>41</ele>
        <time>2019-04-04T08:35:01Z</time>
      </trkpt>
      <trkpt lat="49.88797" lon="2.30191">
        <ele>40</ele>
        <time>2019-04-04T08:35:25Z</time>
      </trkpt>
      <trkpt lat="49.888" lon="2.30181">
        <ele>38</ele>
        <time>2019-04-04T08:35:55Z</time>
      </trkpt>
      <trkpt lat="49.88795" lon="2.30156">
        <ele>39</ele>
        <time>2019-04-04T08:36:17Z</time>
      </trkpt>
      <trkpt lat="49.88802" lon="2.30132">
        <ele>44</ele>
        <time>2019-04-04T08:36:32Z</time>
      </trkpt>
      <trkpt lat="49.88792" lon="2.3011">
        <ele>43</ele>
        <time>2019-04-04T08:36:42Z</time>
      </trkpt>
      <trkpt lat="49.88791" lon="2.30086">
        <ele>38</ele>
        <time>2019-04-04T08:36:57Z</time>
      </trkpt>
      <trkpt lat="49.88792" lon="2.3006">
        <ele>41</ele>
        <time>2019-04-04T08:37:21Z</time>
      </trkpt>
      <trkpt lat="49.88793" lon="2.30032">
        <ele>43</ele>
        <time>2019-04-04T08:37:49Z</time>
      </trkpt>
      <trkpt lat="49.888" lon="2.30006">
        <ele>43</ele>
        <time>2019-04-04T08:38:02Z</time>
      </trkpt>
      <trkpt lat="49.88807" lon="2.2999">
        <ele>39</ele>
        <time>2019-04-04T08:38:14Z</time>
      </trkpt>
      <trkpt lat="49.88807" lon="2.2997">
        <ele>39</ele>
        <time>2019-04-04T08:38:39Z</time>
      </trkpt>
      <trkpt lat="49.88807" lon="2.29906">
        <ele>43</ele>
        <time>2019-04-04T08:39:15Z</time>
      </trkpt>
      <trkpt lat="49.88809" lon="2.29848">
        <ele>43</ele>
        <time>2019-04-04T08:39:51Z</time>
      </trkpt>
      <trkpt lat="49.88808" lon="2.29787">
        <ele>41</ele>
        <time>2019-04-04T08:40:29Z</time>
      </trkpt>
      <trkpt lat="49.88809" lon="2.29767">
        <ele>40</ele>
        <time>2019-04-04T08:40:39Z</time>
      </trkpt>
      <trkpt lat="49.88809" lon="2.29725">
        <ele>40</ele>
        <time>2019-04-04T08:41:02Z</time>
      </trkpt>
      <trkpt lat="49.88816" lon="2.2971">
        <ele>40</ele>
        <time>2019-04-04T08:41:13Z</time>
      </trkpt>
      <trkpt lat="49.88825" lon="2.29688">
        <ele>41</ele>
        <time>2019-04-04T08:41:28Z</time>
      </trkpt>
      <trkpt lat="49.88823" lon="2.29653">
        <ele>37</ele>
        <time>2019-04-04T08:41:55Z</time>
      </trkpt>
      <trkpt lat="49.88826" lon="2.29643">
        <ele>37</ele>
        <time>2019-04-04T08:42:04Z</time>
      </trkpt>
      <trkpt lat="49.88825" lon="2.29634">
        <ele>37</ele>
        <time>2019-04-04T08:42:09Z</time>
      </trkpt>
      <trkpt lat="49.88827" lon="2.29625">
        <ele>37</ele>
        <time>2019-04-04T08:42:15Z</time>
      </trkpt>
      <trkpt lat="49.88832" lon="2.2962">
        <ele>36</ele>
        <time>2019-04-04T08:42:21Z</time>
      </trkpt>
      <trkpt lat="49.88835" lon="2.29611">
        <ele>37</ele>
        <time>2019-04-04T08:42:30Z</time>
      </trkpt>
      <trkpt lat="49.88837" lon="2.29591">
        <ele>36</ele>
        <time>2019-04-04T08:42:47Z</time>
      </trkpt>
      <trkpt lat="49.88831" lon="2.29572">
        <ele>36</ele>
        <time>2019-04-04T08:43:11Z</time>
      </trkpt>
      <trkpt lat="49.8884" lon="2.29558">
        <ele>36</ele>
        <time>2019-04-04T08:43:23Z</time>
      </trkpt>
      <trkpt lat="49.88853" lon="2.29549">
        <ele>37</ele>
        <time>2019-04-04T08:43:38Z</time>
      </trkpt>
      <trkpt lat="49.88866" lon="2.29544">
        <ele>40</ele>
        <time>2019-04-04T08:43:51Z</time>
      </trkpt>
      <trkpt lat="49.88872" lon="2.29512">
        <ele>40</ele>
        <time>2019-04-04T08:44:10Z</time>
      </trkpt>
      <trkpt lat="49.88884" lon="2.29517">
        <ele>35</ele>
        <time>2019-04-04T08:45:43Z</time>
      </trkpt>
      <trkpt lat="49.88909" lon="2.29522">
        <ele>37</ele>
        <time>2019-04-04T08:46:08Z</time>
      </trkpt>
      <trkpt lat="49.88936" lon="2.29535">
        <ele>38</ele>
        <time>2019-04-04T08:46:51Z</time>
      </trkpt>
      <trkpt lat="49.88949" lon="2.29551">
        <ele>33</ele>
        <time>2019-04-04T08:47:01Z</time>
      </trkpt>
      <trkpt lat="49.88961" lon="2.29561">
        <ele>29</ele>
        <time>2019-04-04T08:47:13Z</time>
      </trkpt>
      <trkpt lat="49.88975" lon="2.29561">
        <ele>28</ele>
        <time>2019-04-04T08:47:28Z</time>
      </trkpt>
      <trkpt lat="49.88986" lon="2.2955">
        <ele>31</ele>
        <time>2019-04-04T08:47:48Z</time>
      </trkpt>
      <trkpt lat="49.88994" lon="2.29534">
        <ele>37</ele>
        <time>2019-04-04T08:48:11Z</time>
      </trkpt>
      <trkpt lat="49.88999" lon="2.29495">
        <ele>38</ele>
        <time>2019-04-04T08:48:33Z</time>
      </trkpt>
      <trkpt lat="49.89003" lon="2.29506">
        <ele>35</ele>
        <time>2019-04-04T08:53:34Z</time>
      </trkpt>
      <trkpt lat="49.88997" lon="2.29525">
        <ele>35</ele>
        <time>2019-04-04T08:53:54Z</time>
      </trkpt>
      <trkpt lat="49.88988" lon="2.29541">
        <ele>32</ele>
        <time>2019-04-04T08:54:13Z</time>
      </trkpt>
      <trkpt lat="49.88982" lon="2.29559">
        <ele>31</ele>
        <time>2019-04-04T08:54:25Z</time>
      </trkpt>
      <trkpt lat="49.88993" lon="2.29569">
        <ele>32</ele>
        <time>2019-04-04T08:54:41Z</time>
      </trkpt>
      <trkpt lat="49.89008" lon="2.2958">
        <ele>33</ele>
        <time>2019-04-04T08:55:02Z</time>
      </trkpt>
      <trkpt lat="49.89019" lon="2.29582">
        <ele>36</ele>
        <time>2019-04-04T08:55:16Z</time>
      </trkpt>
      <trkpt lat="49.89026" lon="2.2958">
        <ele>39</ele>
        <time>2019-04-04T08:55:49Z</time>
      </trkpt>
      <trkpt lat="49.8903" lon="2.29582">
        <ele>36</ele>
        <time>2019-04-04T08:56:33Z</time>
      </trkpt>
      <trkpt lat="49.89034" lon="2.2959">
        <ele>36</ele>
        <time>2019-04-04T08:56:54Z</time>
      </trkpt>
      <trkpt lat="49.8904" lon="2.29591">
        <ele>34</ele>
        <time>2019-04-04T08:57:07Z</time>
      </trkpt>
      <trkpt lat="49.89045" lon="2.29599">
        <ele>34</ele>
        <time>2019-04-04T08:57:24Z</time>
      </trkpt>
      <trkpt lat="49.8906" lon="2.29602">
        <ele>36</ele>
        <time>2019-04-04T08:57:51Z</time>
      </trkpt>
      <trkpt lat="49.89071" lon="2.29616">
        <ele>41</ele>
        <time>2019-04-04T08:58:52Z</time>
      </trkpt>
      <trkpt lat="49.89082" lon="2.29633">
        <ele>41</ele>
        <time>2019-04-04T08:59:10Z</time>
      </trkpt>
      <trkpt lat="49.89097" lon="2.29642">
        <ele>38</ele>
        <time>2019-04-04T08:59:24Z</time>
      </trkpt>
      <trkpt lat="49.89113" lon="2.29653">
        <ele>39</ele>
        <time>2019-04-04T08:59:39Z</time>
      </trkpt>
      <trkpt lat="49.8913" lon="2.29669">
        <ele>41</ele>
        <time>2019-04-04T08:59:59Z</time>
      </trkpt>
      <trkpt lat="49.89145" lon="2.29681">
        <ele>44</ele>
        <time>2019-04-04T09:00:15Z</time>
      </trkpt>
      <trkpt lat="49.89171" lon="2.29697">
        <ele>41</ele>
        <time>2019-04-04T09:00:48Z</time>
      </trkpt>
      <trkpt lat="49.89185" lon="2.29705">
        <ele>40</ele>
        <time>2019-04-04T09:01:04Z</time>
      </trkpt>
      <trkpt lat="49.892" lon="2.29701">
        <ele>38</ele>
        <time>2019-04-04T09:01:16Z</time>
      </trkpt>
      <trkpt lat="49.89233" lon="2.29706">
        <ele>36</ele>
        <time>2019-04-04T09:01:59Z</time>
      </trkpt>
      <trkpt lat="49.8925" lon="2.29709">
        <ele>40</ele>
        <time>2019-04-04T09:02:15Z</time>
      </trkpt>
      <trkpt lat="49.89262" lon="2.29697">
        <ele>44</ele>
        <time>2019-04-04T09:02:35Z</time>
      </trkpt>
      <trkpt lat="49.89276" lon="2.29703">
        <ele>43</ele>
        <time>2019-04-04T09:03:02Z</time>
      </trkpt>
      <trkpt lat="49.89273" lon="2.29677">
        <ele>44</ele>
        <time>2019-04-04T09:14:05Z</time>
      </trkpt>
      <trkpt lat="49.89287" lon="2.29664">
        <ele>34</ele>
        <time>2019-04-04T09:14:16Z</time>
      </trkpt>
      <trkpt lat="49.89279" lon="2.29643">
        <ele>33</ele>
        <time>2019-04-04T09:14:27Z</time>
      </trkpt>
      <trkpt lat="49.89274" lon="2.29621">
        <ele>33</ele>
        <time>2019-04-04T09:14:42Z</time>
      </trkpt>
      <trkpt lat="49.89288" lon="2.29615">
        <ele>35</ele>
        <time>2019-04-04T09:15:27Z</time>
      </trkpt>
      <trkpt lat="49.89287" lon="2.29594">
        <ele>33</ele>
        <time>2019-04-04T09:18:10Z</time>
      </trkpt>
      <trkpt lat="49.89283" lon="2.29573">
        <ele>38</ele>
        <time>2019-04-04T09:18:23Z</time>
      </trkpt>
      <trkpt lat="49.89275" lon="2.29553">
        <ele>39</ele>
        <time>2019-04-04T09:18:35Z</time>
      </trkpt>
      <trkpt lat="49.8929" lon="2.29549">
        <ele>40</ele>
        <time>2019-04-04T09:18:43Z</time>
      </trkpt>
      <trkpt lat="49.89305" lon="2.29551">
        <ele>33</ele>
        <time>2019-04-04T09:19:19Z</time>
      </trkpt>
      <trkpt lat="49.89322" lon="2.29551">
        <ele>36</ele>
        <time>2019-04-04T09:19:27Z</time>
      </trkpt>
      <trkpt lat="49.89339" lon="2.29552">
        <ele>39</ele>
        <time>2019-04-04T09:19:38Z</time>
      </trkpt>
      <trkpt lat="49.89369" lon="2.29542">
        <ele>39</ele>
        <time>2019-04-04T09:20:46Z</time>
      </trkpt>
      <trkpt lat="49.89384" lon="2.29525">
        <ele>37</ele>
        <time>2019-04-04T09:21:09Z</time>
      </trkpt>
      <trkpt lat="49.89395" lon="2.29515">
        <ele>40</ele>
        <time>2019-04-04T09:21:54Z</time>
      </trkpt>
      <trkpt lat="49.89446" lon="2.29532">
        <ele>38</ele>
        <time>2019-04-04T09:22:29Z</time>
      </trkpt>
      <trkpt lat="49.89452" lon="2.29512">
        <ele>37</ele>
        <time>2019-04-04T09:23:08Z</time>
      </trkpt>
      <trkpt lat="49.89465" lon="2.29509">
        <ele>36</ele>
        <time>2019-04-04T09:23:21Z</time>
      </trkpt>
      <trkpt lat="49.89468" lon="2.2952">
        <ele>34</ele>
        <time>2019-04-04T09:24:08Z</time>
      </trkpt>
      <trkpt lat="49.89464" lon="2.29543">
        <ele>29</ele>
        <time>2019-04-04T09:24:33Z</time>
      </trkpt>
      <trkpt lat="49.89457" lon="2.29554">
        <ele>28</ele>
        <time>2019-04-04T09:24:46Z</time>
      </trkpt>
      <trkpt lat="49.8946" lon="2.29565">
        <ele>26</ele>
        <time>2019-04-04T09:24:52Z</time>
      </trkpt>
      <trkpt lat="49.89462" lon="2.29571">
        <ele>29</ele>
        <time>2019-04-04T09:25:05Z</time>
      </trkpt>
      <trkpt lat="49.89477" lon="2.2957">
        <ele>29</ele>
        <time>2019-04-04T09:25:38Z</time>
      </trkpt>
      <trkpt lat="49.8949" lon="2.29583">
        <ele>34</ele>
        <time>2019-04-04T09:26:09Z</time>
      </trkpt>
      <trkpt lat="49.89499" lon="2.29585">
        <ele>34</ele>
        <time>2019-04-04T09:27:02Z</time>
      </trkpt>
      <trkpt lat="49.89511" lon="2.29604">
        <ele>32</ele>
        <time>2019-04-04T09:27:31Z</time>
      </trkpt>
      <trkpt lat="49.8951" lon="2.29611">
        <ele>32</ele>
        <time>2019-04-04T09:27:44Z</time>
      </trkpt>
      <trkpt lat="49.89512" lon="2.29609">
        <ele>32</ele>
        <time>2019-04-04T09:28:08Z</time>
      </trkpt>
      <trkpt lat="49.89516" lon="2.29609">
        <ele>31</ele>
        <time>2019-04-04T09:28:16Z</time>
      </trkpt>
      <trkpt lat="49.89538" lon="2.29612">
        <ele>32</ele>
        <time>2019-04-04T09:28:43Z</time>
      </trkpt>
      <trkpt lat="49.89552" lon="2.29617">
        <ele>39</ele>
        <time>2019-04-04T09:28:54Z</time>
      </trkpt>
      <trkpt lat="49.89553" lon="2.29623">
        <ele>32</ele>
        <time>2019-04-04T09:29:20Z</time>
      </trkpt>
      <trkpt lat="49.89557" lon="2.29626">
        <ele>30</ele>
        <time>2019-04-04T09:29:26Z</time>
      </trkpt>
      <trkpt lat="49.89555" lon="2.29634">
        <ele>30</ele>
        <time>2019-04-04T09:30:17Z</time>
      </trkpt>
      <trkpt lat="49.89556" lon="2.29643">
        <ele>30</ele>
        <time>2019-04-04T09:30:22Z</time>
      </trkpt>
      <trkpt lat="49.89547" lon="2.29654">
        <ele>28</ele>
        <time>2019-04-04T09:30:36Z</time>
      </trkpt>
      <trkpt lat="49.89546" lon="2.29663">
        <ele>29</ele>
        <time>2019-04-04T09:30:46Z</time>
      </trkpt>
      <trkpt lat="49.89547" lon="2.29673">
        <ele>29</ele>
        <time>2019-04-04T09:30:57Z</time>
      </trkpt>
      <trkpt lat="49.89541" lon="2.29717">
        <ele>30</ele>
        <time>2019-04-04T09:31:31Z</time>
      </trkpt>
      <trkpt lat="49.89539" lon="2.29724">
        <ele>29</ele>
        <time>2019-04-04T09:31:38Z</time>
      </trkpt>
      <trkpt lat="49.8954" lon="2.2973">
        <ele>28</ele>
        <time>2019-04-04T09:31:43Z</time>
      </trkpt>
      <trkpt lat="49.89537" lon="2.29737">
        <ele>26</ele>
        <time>2019-04-04T09:31:48Z</time>
      </trkpt>
      <trkpt lat="49.89535" lon="2.2975">
        <ele>27</ele>
        <time>2019-04-04T09:31:57Z</time>
      </trkpt>
      <trkpt lat="49.89534" lon="2.29767">
        <ele>30</ele>
        <time>2019-04-04T09:32:09Z</time>
      </trkpt>
      <trkpt lat="49.89533" lon="2.29784">
        <ele>27</ele>
        <time>2019-04-04T09:32:22Z</time>
      </trkpt>
      <trkpt lat="49.8952" lon="2.29793">
        <ele>28</ele>
        <time>2019-04-04T09:32:33Z</time>
      </trkpt>
      <trkpt lat="49.89519" lon="2.298">
        <ele>29</ele>
        <time>2019-04-04T09:32:38Z</time>
      </trkpt>
      <trkpt lat="49.8952" lon="2.29809">
        <ele>27</ele>
        <time>2019-04-04T09:32:44Z</time>
      </trkpt>
      <trkpt lat="49.89514" lon="2.29819">
        <ele>27</ele>
        <time>2019-04-04T09:32:53Z</time>
      </trkpt>
      <trkpt lat="49.8951" lon="2.29845">
        <ele>28</ele>
        <time>2019-04-04T09:33:11Z</time>
      </trkpt>
      <trkpt lat="49.89502" lon="2.29854">
        <ele>27</ele>
        <time>2019-04-04T09:33:23Z</time>
      </trkpt>
      <trkpt lat="49.89497" lon="2.2986">
        <ele>26</ele>
        <time>2019-04-04T09:33:27Z</time>
      </trkpt>
      <trkpt lat="49.89497" lon="2.29867">
        <ele>26</ele>
        <time>2019-04-04T09:33:31Z</time>
      </trkpt>
      <trkpt lat="49.89494" lon="2.29879">
        <ele>27</ele>
        <time>2019-04-04T09:33:39Z</time>
      </trkpt>
      <trkpt lat="49.895" lon="2.29902">
        <ele>27</ele>
        <time>2019-04-04T09:33:54Z</time>
      </trkpt>
      <trkpt lat="49.89503" lon="2.29911">
        <ele>30</ele>
        <time>2019-04-04T09:33:59Z</time>
      </trkpt>
      <trkpt lat="49.89506" lon="2.29918">
        <ele>31</ele>
        <time>2019-04-04T09:34:04Z</time>
      </trkpt>
      <trkpt lat="49.89497" lon="2.29945">
        <ele>26</ele>
        <time>2019-04-04T09:34:29Z</time>
      </trkpt>
      <trkpt lat="49.89494" lon="2.2995">
        <ele>28</ele>
        <time>2019-04-04T09:34:34Z</time>
      </trkpt>
      <trkpt lat="49.89493" lon="2.29966">
        <ele>29</ele>
        <time>2019-04-04T09:34:42Z</time>
      </trkpt>
      <trkpt lat="49.89488" lon="2.29975">
        <ele>27</ele>
        <time>2019-04-04T09:34:54Z</time>
      </trkpt>
      <trkpt lat="49.89483" lon="2.2998">
        <ele>26</ele>
        <time>2019-04-04T09:35:00Z</time>
      </trkpt>
      <trkpt lat="49.89479" lon="2.29993">
        <ele>27</ele>
        <time>2019-04-04T09:35:11Z</time>
      </trkpt>
      <trkpt lat="49.89479" lon="2.30012">
        <ele>27</ele>
        <time>2019-04-04T09:35:25Z</time>
      </trkpt>
      <trkpt lat="49.89476" lon="2.30021">
        <ele>28</ele>
        <time>2019-04-04T09:35:34Z</time>
      </trkpt>
      <trkpt lat="49.89475" lon="2.3003">
        <ele>28</ele>
        <time>2019-04-04T09:35:40Z</time>
      </trkpt>
      <trkpt lat="49.89476" lon="2.30037">
        <ele>28</ele>
        <time>2019-04-04T09:35:47Z</time>
      </trkpt>
      <trkpt lat="49.89492" lon="2.30047">
        <ele>25</ele>
        <time>2019-04-04T09:36:50Z</time>
      </trkpt>
      <trkpt lat="49.89499" lon="2.30065">
        <ele>23</ele>
        <time>2019-04-04T09:37:08Z</time>
      </trkpt>
      <trkpt lat="49.89514" lon="2.30072">
        <ele>25</ele>
        <time>2019-04-04T09:37:28Z</time>
      </trkpt>
      <trkpt lat="49.89519" lon="2.30079">
        <ele>24</ele>
        <time>2019-04-04T09:37:37Z</time>
      </trkpt>
      <trkpt lat="49.89518" lon="2.30086">
        <ele>24</ele>
        <time>2019-04-04T09:37:44Z</time>
      </trkpt>
      <trkpt lat="49.8952" lon="2.30092">
        <ele>25</ele>
        <time>2019-04-04T09:37:48Z</time>
      </trkpt>
      <trkpt lat="49.89518" lon="2.30106">
        <ele>25</ele>
        <time>2019-04-04T09:38:03Z</time>
      </trkpt>
      <trkpt lat="49.89514" lon="2.30112">
        <ele>26</ele>
        <time>2019-04-04T09:38:11Z</time>
      </trkpt>
      <trkpt lat="49.8951" lon="2.30128">
        <ele>27</ele>
        <time>2019-04-04T09:38:24Z</time>
      </trkpt>
      <trkpt lat="49.89512" lon="2.30153">
        <ele>27</ele>
        <time>2019-04-04T09:56:56Z</time>
      </trkpt>
      <trkpt lat="49.89508" lon="2.30187">
        <ele>19</ele>
        <time>2019-04-04T09:56:59Z</time>
      </trkpt>
      <trkpt lat="49.89494" lon="2.30192">
        <ele>26</ele>
        <time>2019-04-04T09:57:10Z</time>
      </trkpt>
      <trkpt lat="49.89499" lon="2.30155">
        <ele>47</ele>
        <time>2019-04-04T10:00:51Z</time>
      </trkpt>
      <trkpt lat="49.8951" lon="2.30139">
        <ele>47</ele>
        <time>2019-04-04T10:00:57Z</time>
      </trkpt>
      <trkpt lat="49.89505" lon="2.30128">
        <ele>43</ele>
        <time>2019-04-04T10:01:02Z</time>
      </trkpt>
      <trkpt lat="49.89504" lon="2.30122">
        <ele>41</ele>
        <time>2019-04-04T10:01:07Z</time>
      </trkpt>
      <trkpt lat="49.89501" lon="2.30116">
        <ele>39</ele>
        <time>2019-04-04T10:01:12Z</time>
      </trkpt>
      <trkpt lat="49.895" lon="2.30104">
        <ele>35</ele>
        <time>2019-04-04T10:01:20Z</time>
      </trkpt>
      <trkpt lat="49.89496" lon="2.301">
        <ele>34</ele>
        <time>2019-04-04T10:01:24Z</time>
      </trkpt>
      <trkpt lat="49.89482" lon="2.3009">
        <ele>33</ele>
        <time>2019-04-04T10:01:42Z</time>
      </trkpt>
      <trkpt lat="49.89478" lon="2.30092">
        <ele>30</ele>
        <time>2019-04-04T10:01:48Z</time>
      </trkpt>
      <trkpt lat="49.89475" lon="2.30098">
        <ele>29</ele>
        <time>2019-04-04T10:01:53Z</time>
      </trkpt>
      <trkpt lat="49.89464" lon="2.30107">
        <ele>25</ele>
        <time>2019-04-04T10:02:08Z</time>
      </trkpt>
      <trkpt lat="49.89453" lon="2.30146">
        <ele>25</ele>
        <time>2019-04-04T10:02:41Z</time>
      </trkpt>
      <trkpt lat="49.89448" lon="2.30174">
        <ele>36</ele>
        <time>2019-04-04T10:03:49Z</time>
      </trkpt>
      <trkpt lat="49.89445" lon="2.30184">
        <ele>38</ele>
        <time>2019-04-04T10:06:21Z</time>
      </trkpt>
      <trkpt lat="49.8944" lon="2.30187">
        <ele>38</ele>
        <time>2019-04-04T10:06:30Z</time>
      </trkpt>
      <trkpt lat="49.89434" lon="2.30188">
        <ele>37</ele>
        <time>2019-04-04T10:06:36Z</time>
      </trkpt>
      <trkpt lat="49.89423" lon="2.30186">
        <ele>28</ele>
        <time>2019-04-04T10:06:51Z</time>
      </trkpt>
      <trkpt lat="49.89421" lon="2.3018">
        <ele>27</ele>
        <time>2019-04-04T10:06:59Z</time>
      </trkpt>
      <trkpt lat="49.89416" lon="2.30179">
        <ele>28</ele>
        <time>2019-04-04T10:07:07Z</time>
      </trkpt>
      <trkpt lat="49.89413" lon="2.30175">
        <ele>29</ele>
        <time>2019-04-04T10:07:11Z</time>
      </trkpt>
      <trkpt lat="49.89409" lon="2.30172">
        <ele>30</ele>
        <time>2019-04-04T10:07:17Z</time>
      </trkpt>
      <trkpt lat="49.89407" lon="2.30166">
        <ele>29</ele>
        <time>2019-04-04T10:07:24Z</time>
      </trkpt>
      <trkpt lat="49.89402" lon="2.30162">
        <ele>30</ele>
        <time>2019-04-04T10:07:34Z</time>
      </trkpt>
      <trkpt lat="49.89398" lon="2.30164">
        <ele>31</ele>
        <time>2019-04-04T10:07:48Z</time>
      </trkpt>
      <trkpt lat="49.8939" lon="2.30159">
        <ele>33</ele>
        <time>2019-04-04T10:07:56Z</time>
      </trkpt>
      <trkpt lat="49.89386" lon="2.30155">
        <ele>34</ele>
        <time>2019-04-04T10:08:06Z</time>
      </trkpt>
      <trkpt lat="49.89378" lon="2.3015">
        <ele>32</ele>
        <time>2019-04-04T10:08:17Z</time>
      </trkpt>
      <trkpt lat="49.89375" lon="2.30143">
        <ele>31</ele>
        <time>2019-04-04T10:08:26Z</time>
      </trkpt>
      <trkpt lat="49.8937" lon="2.30141">
        <ele>31</ele>
        <time>2019-04-04T10:08:33Z</time>
      </trkpt>
      <trkpt lat="49.8936" lon="2.30131">
        <ele>31</ele>
        <time>2019-04-04T10:08:46Z</time>
      </trkpt>
      <trkpt lat="49.89355" lon="2.30127">
        <ele>32</ele>
        <time>2019-04-04T10:08:51Z</time>
      </trkpt>
      <trkpt lat="49.89351" lon="2.30125">
        <ele>32</ele>
        <time>2019-04-04T10:08:57Z</time>
      </trkpt>
      <trkpt lat="49.89346" lon="2.30122">
        <ele>32</ele>
        <time>2019-04-04T10:09:02Z</time>
      </trkpt>
      <trkpt lat="49.89337" lon="2.30119">
        <ele>32</ele>
        <time>2019-04-04T10:09:11Z</time>
      </trkpt>
      <trkpt lat="49.89335" lon="2.30114">
        <ele>33</ele>
        <time>2019-04-04T10:09:18Z</time>
      </trkpt>
      <trkpt lat="49.8933" lon="2.30111">
        <ele>33</ele>
        <time>2019-04-04T10:09:23Z</time>
      </trkpt>
      <trkpt lat="49.89333" lon="2.30105">
        <ele>34</ele>
        <time>2019-04-04T10:09:38Z</time>
      </trkpt>
      <trkpt lat="49.89336" lon="2.30101">
        <ele>33</ele>
        <time>2019-04-04T10:10:36Z</time>
      </trkpt>
      <trkpt lat="49.89339" lon="2.30096">
        <ele>38</ele>
        <time>2019-04-04T10:11:24Z</time>
      </trkpt>
      <trkpt lat="49.89341" lon="2.30107">
        <ele>37</ele>
        <time>2019-04-04T10:11:37Z</time>
      </trkpt>
      <trkpt lat="49.89341" lon="2.30114">
        <ele>38</ele>
        <time>2019-04-04T10:11:50Z</time>
      </trkpt>
      <trkpt lat="49.89353" lon="2.30125">
        <ele>35</ele>
        <time>2019-04-04T10:12:05Z</time>
      </trkpt>
      <trkpt lat="49.89357" lon="2.30132">
        <ele>40</ele>
        <time>2019-04-04T10:12:14Z</time>
      </trkpt>
      <trkpt lat="49.89365" lon="2.30135">
        <ele>41</ele>
        <time>2019-04-04T10:12:23Z</time>
      </trkpt>
      <trkpt lat="49.89371" lon="2.30145">
        <ele>41</ele>
        <time>2019-04-04T10:12:41Z</time>
      </trkpt>
      <trkpt lat="49.89383" lon="2.30146">
        <ele>39</ele>
        <time>2019-04-04T10:12:46Z</time>
      </trkpt>
      <trkpt lat="49.89403" lon="2.30173">
        <ele>42</ele>
        <time>2019-04-04T10:13:19Z</time>
      </trkpt>
      <trkpt lat="49.89404" lon="2.3018">
        <ele>42</ele>
        <time>2019-04-04T10:13:25Z</time>
      </trkpt>
      <trkpt lat="49.89407" lon="2.30186">
        <ele>41</ele>
        <time>2019-04-04T10:13:32Z</time>
      </trkpt>
      <trkpt lat="49.89414" lon="2.30187">
        <ele>42</ele>
        <time>2019-04-04T10:13:38Z</time>
      </trkpt>
      <trkpt lat="49.89426" lon="2.30182">
        <ele>42</ele>
        <time>2019-04-04T10:13:53Z</time>
      </trkpt>
      <trkpt lat="49.89433" lon="2.30185">
        <ele>34</ele>
        <time>2019-04-04T10:14:11Z</time>
      </trkpt>
      <trkpt lat="49.89438" lon="2.30182">
        <ele>34</ele>
        <time>2019-04-04T10:14:20Z</time>
      </trkpt>
      <trkpt lat="49.89446" lon="2.3018">
        <ele>29</ele>
        <time>2019-04-04T10:14:43Z</time>
      </trkpt>
      <trkpt lat="49.89494" lon="2.30101">
        <ele>16</ele>
        <time>2019-04-04T12:02:30Z</time>
      </trkpt>
      <trkpt lat="49.89494" lon="2.30101">
        <ele>17</ele>
        <time>2019-04-04T12:02:31Z</time>
      </trkpt>
      <trkpt lat="49.89498" lon="2.30102">
        <ele>17</ele>
        <time>2019-04-04T12:02:56Z</time>
      </trkpt>
      <trkpt lat="49.89508" lon="2.30099">
        <ele>15</ele>
        <time>2019-04-04T12:03:11Z</time>
      </trkpt>
      <trkpt lat="49.89513" lon="2.30101">
        <ele>16</ele>
        <time>2019-04-04T12:03:17Z</time>
      </trkpt>
      <trkpt lat="49.89517" lon="2.30099">
        <ele>17</ele>
        <time>2019-04-04T12:03:24Z</time>
      </trkpt>
      <trkpt lat="49.89534" lon="2.30112">
        <ele>20</ele>
        <time>2019-04-04T12:03:56Z</time>
      </trkpt>
      <trkpt lat="49.89538" lon="2.30115">
        <ele>19</ele>
        <time>2019-04-04T12:04:03Z</time>
      </trkpt>
      <trkpt lat="49.89542" lon="2.30122">
        <ele>19</ele>
        <time>2019-04-04T12:04:09Z</time>
      </trkpt>
      <trkpt lat="49.89545" lon="2.30127">
        <ele>17</ele>
        <time>2019-04-04T12:04:15Z</time>
      </trkpt>
      <trkpt lat="49.89549" lon="2.30127">
        <ele>17</ele>
        <time>2019-04-04T12:04:20Z</time>
      </trkpt>
      <trkpt lat="49.89562" lon="2.30134">
        <ele>16</ele>
        <time>2019-04-04T12:04:47Z</time>
      </trkpt>
      <trkpt lat="49.89574" lon="2.30135">
        <ele>17</ele>
        <time>2019-04-04T12:05:07Z</time>
      </trkpt>
      <trkpt lat="49.89601" lon="2.30143">
        <ele>19</ele>
        <time>2019-04-04T12:05:40Z</time>
      </trkpt>
      <trkpt lat="49.89619" lon="2.30138">
        <ele>21</ele>
        <time>2019-04-04T12:05:57Z</time>
      </trkpt>
      <trkpt lat="49.89641" lon="2.30136">
        <ele>29</ele>
        <time>2019-04-04T12:06:27Z</time>
      </trkpt>
      <trkpt lat="49.89646" lon="2.30138">
        <ele>28</ele>
        <time>2019-04-04T12:06:34Z</time>
      </trkpt>
      <trkpt lat="49.89654" lon="2.30144">
        <ele>27</ele>
        <time>2019-04-04T12:06:52Z</time>
      </trkpt>
      <trkpt lat="49.89659" lon="2.30146">
        <ele>26</ele>
        <time>2019-04-04T12:06:58Z</time>
      </trkpt>
      <trkpt lat="49.89667" lon="2.30155">
        <ele>21</ele>
        <time>2019-04-04T12:07:40Z</time>
      </trkpt>
      <trkpt lat="49.89688" lon="2.30154">
        <ele>22</ele>
        <time>2019-04-04T12:07:55Z</time>
      </trkpt>
      <trkpt lat="49.89688" lon="2.30177">
        <ele>22</ele>
        <time>2019-04-04T12:08:13Z</time>
      </trkpt>
      <trkpt lat="49.89717" lon="2.30193">
        <ele>24</ele>
        <time>2019-04-04T12:08:42Z</time>
      </trkpt>
      <trkpt lat="49.89736" lon="2.30162">
        <ele>20</ele>
        <time>2019-04-04T12:09:16Z</time>
      </trkpt>
      <trkpt lat="49.89736" lon="2.30142">
        <ele>19</ele>
        <time>2019-04-04T12:09:32Z</time>
      </trkpt>
      <trkpt lat="49.89738" lon="2.30122">
        <ele>20</ele>
        <time>2019-04-04T12:09:49Z</time>
      </trkpt>
      <trkpt lat="49.89744" lon="2.30103">
        <ele>21</ele>
        <time>2019-04-04T12:10:00Z</time>
      </trkpt>
      <trkpt lat="49.89764" lon="2.30077">
        <ele>29</ele>
        <time>2019-04-04T12:10:24Z</time>
      </trkpt>
      <trkpt lat="49.89779" lon="2.30078">
        <ele>30</ele>
        <time>2019-04-04T12:10:40Z</time>
      </trkpt>
      <trkpt lat="49.89783" lon="2.30077">
        <ele>31</ele>
        <time>2019-04-04T12:12:19Z</time>
      </trkpt>
      <trkpt lat="49.89807" lon="2.30073">
        <ele>32</ele>
        <time>2019-04-04T12:12:40Z</time>
      </trkpt>
      <trkpt lat="49.89809" lon="2.30079">
        <ele>29</ele>
        <time>2019-04-04T12:12:44Z</time>
      </trkpt>
      <trkpt lat="49.8982" lon="2.30071">
        <ele>19</ele>
        <time>2019-04-04T12:13:10Z</time>
      </trkpt>
      <trkpt lat="49.89813" lon="2.3005">
        <ele>26</ele>
        <time>2019-04-04T12:13:56Z</time>
      </trkpt>
      <trkpt lat="49.8981" lon="2.30024">
        <ele>10</ele>
        <time>2019-04-04T12:14:19Z</time>
      </trkpt>
      <trkpt lat="49.89813" lon="2.30008">
        <ele>6</ele>
        <time>2019-04-04T12:14:33Z</time>
      </trkpt>
      <trkpt lat="49.89825" lon="2.29942">
        <ele>17</ele>
        <time>2019-04-04T12:15:03Z</time>
      </trkpt>
      <trkpt lat="49.89832" lon="2.29883">
        <ele>22</ele>
        <time>2019-04-04T12:15:33Z</time>
      </trkpt>
      <trkpt lat="49.89832" lon="2.29875">
        <ele>23</ele>
        <time>2019-04-04T12:15:37Z</time>
      </trkpt>
      <trkpt lat="49.89836" lon="2.29861">
        <ele>25</ele>
        <time>2019-04-04T12:15:43Z</time>
      </trkpt>
      <trkpt lat="49.89841" lon="2.29838">
        <ele>27</ele>
        <time>2019-04-04T12:15:58Z</time>
      </trkpt>
      <trkpt lat="49.89854" lon="2.29803">
        <ele>28</ele>
        <time>2019-04-04T12:16:17Z</time>
      </trkpt>
      <trkpt lat="49.89857" lon="2.29788">
        <ele>32</ele>
        <time>2019-04-04T12:16:28Z</time>
      </trkpt>
      <trkpt lat="49.89886" lon="2.29784">
        <ele>25</ele>
        <time>2019-04-04T12:16:59Z</time>
      </trkpt>
      <trkpt lat="49.89892" lon="2.29785">
        <ele>23</ele>
        <time>2019-04-04T12:17:04Z</time>
      </trkpt>
      <trkpt lat="49.89904" lon="2.29783">
        <ele>22</ele>
        <time>2019-04-04T12:17:17Z</time>
      </trkpt>
      <trkpt lat="49.89916" lon="2.29785">
        <ele>18</ele>
        <time>2019-04-04T12:17:28Z</time>
      </trkpt>
      <trkpt lat="49.89929" lon="2.2979">
        <ele>15</ele>
        <time>2019-04-04T12:17:42Z</time>
      </trkpt>
      <trkpt lat="49.89955" lon="2.29776">
        <ele>12</ele>
        <time>2019-04-04T12:18:19Z</time>
      </trkpt>
      <trkpt lat="49.89967" lon="2.2977">
        <ele>15</ele>
        <time>2019-04-04T12:18:33Z</time>
      </trkpt>
      <trkpt lat="49.89972" lon="2.29752">
        <ele>16</ele>
        <time>2019-04-04T12:19:41Z</time>
      </trkpt>
      <trkpt lat="49.89965" lon="2.29735">
        <ele>16</ele>
        <time>2019-04-04T12:19:55Z</time>
      </trkpt>
      <trkpt lat="49.89956" lon="2.29721">
        <ele>14</ele>
        <time>2019-04-04T12:20:08Z</time>
      </trkpt>
      <trkpt lat="49.89948" lon="2.29707">
        <ele>14</ele>
        <time>2019-04-04T12:20:25Z</time>
      </trkpt>
      <trkpt lat="49.89935" lon="2.29704">
        <ele>14</ele>
        <time>2019-04-04T12:20:36Z</time>
      </trkpt>
      <trkpt lat="49.89912" lon="2.29672">
        <ele>12</ele>
        <time>2019-04-04T12:21:10Z</time>
      </trkpt>
      <trkpt lat="49.8991" lon="2.29664">
        <ele>15</ele>
        <time>2019-04-04T12:21:21Z</time>
      </trkpt>
      <trkpt lat="49.8988" lon="2.2963">
        <ele>15</ele>
        <time>2019-04-04T12:21:53Z</time>
      </trkpt>
      <trkpt lat="49.89857" lon="2.296">
        <ele>17</ele>
        <time>2019-04-04T12:22:24Z</time>
      </trkpt>
      <trkpt lat="49.89853" lon="2.29594">
        <ele>17</ele>
        <time>2019-04-04T12:22:28Z</time>
      </trkpt>
      <trkpt lat="49.89828" lon="2.29564">
        <ele>16</ele>
        <time>2019-04-04T12:22:59Z</time>
      </trkpt>
      <trkpt lat="49.89822" lon="2.29554">
        <ele>16</ele>
        <time>2019-04-04T12:23:07Z</time>
      </trkpt>
      <trkpt lat="49.89818" lon="2.29549">
        <ele>18</ele>
        <time>2019-04-04T12:23:12Z</time>
      </trkpt>
      <trkpt lat="49.89814" lon="2.29544">
        <ele>19</ele>
        <time>2019-04-04T12:23:16Z</time>
      </trkpt>
      <trkpt lat="49.89805" lon="2.29527">
        <ele>17</ele>
        <time>2019-04-04T12:23:32Z</time>
      </trkpt>
      <trkpt lat="49.89791" lon="2.29523">
        <ele>14</ele>
        <time>2019-04-04T12:24:01Z</time>
      </trkpt>
      <trkpt lat="49.89783" lon="2.29518">
        <ele>14</ele>
        <time>2019-04-04T12:24:10Z</time>
      </trkpt>
      <trkpt lat="49.89784" lon="2.29517">
        <ele>15</ele>
        <time>2019-04-04T12:24:43Z</time>
      </trkpt>
      <trkpt lat="49.89789" lon="2.29518">
        <ele>16</ele>
        <time>2019-04-04T12:25:17Z</time>
      </trkpt>
      <trkpt lat="49.89819" lon="2.29537">
        <ele>17</ele>
        <time>2019-04-04T12:25:47Z</time>
      </trkpt>
      <trkpt lat="49.89828" lon="2.29543">
        <ele>15</ele>
        <time>2019-04-04T12:26:12Z</time>
      </trkpt>
      <trkpt lat="49.89833" lon="2.29545">
        <ele>16</ele>
        <time>2019-04-04T12:26:18Z</time>
      </trkpt>
      <trkpt lat="49.89837" lon="2.29547">
        <ele>16</ele>
        <time>2019-04-04T12:26:23Z</time>
      </trkpt>
      <trkpt lat="49.89872" lon="2.29553">
        <ele>15</ele>
        <time>2019-04-04T12:26:53Z</time>
      </trkpt>
      <trkpt lat="49.89876" lon="2.2955">
        <ele>15</ele>
        <time>2019-04-04T12:27:01Z</time>
      </trkpt>
      <trkpt lat="49.89881" lon="2.29545">
        <ele>15</ele>
        <time>2019-04-04T12:27:06Z</time>
      </trkpt>
      <trkpt lat="49.89885" lon="2.29544">
        <ele>14</ele>
        <time>2019-04-04T12:27:10Z</time>
      </trkpt>
      <trkpt lat="49.89919" lon="2.29551">
        <ele>14</ele>
        <time>2019-04-04T12:27:41Z</time>
      </trkpt>
      <trkpt lat="49.89957" lon="2.29563">
        <ele>16</ele>
        <time>2019-04-04T12:28:14Z</time>
      </trkpt>
      <trkpt lat="49.89975" lon="2.29568">
        <ele>17</ele>
        <time>2019-04-04T12:28:29Z</time>
      </trkpt>
      <trkpt lat="49.89979" lon="2.29571">
        <ele>16</ele>
        <time>2019-04-04T12:28:34Z</time>
      </trkpt>
      <trkpt lat="49.89981" lon="2.29577">
        <ele>15</ele>
        <time>2019-04-04T12:28:38Z</time>
      </trkpt>
      <trkpt lat="49.89985" lon="2.29581">
        <ele>15</ele>
        <time>2019-04-04T12:28:42Z</time>
      </trkpt>
      <trkpt lat="49.89993" lon="2.29588">
        <ele>16</ele>
        <time>2019-04-04T12:28:52Z</time>
      </trkpt>
      <trkpt lat="49.90006" lon="2.29593">
        <ele>16</ele>
        <time>2019-04-04T12:29:08Z</time>
      </trkpt>
      <trkpt lat="49.90034" lon="2.29601">
        <ele>11</ele>
        <time>2019-04-04T12:29:36Z</time>
      </trkpt>
      <trkpt lat="49.90059" lon="2.2961">
        <ele>16</ele>
        <time>2019-04-04T12:30:00Z</time>
      </trkpt>
      <trkpt lat="49.90086" lon="2.29618">
        <ele>17</ele>
        <time>2019-04-04T12:30:32Z</time>
      </trkpt>
      <trkpt lat="49.90105" lon="2.29622">
        <ele>18</ele>
        <time>2019-04-04T12:30:51Z</time>
      </trkpt>
      <trkpt lat="49.90116" lon="2.29621">
        <ele>17</ele>
        <time>2019-04-04T12:31:02Z</time>
      </trkpt>
      <trkpt lat="49.90123" lon="2.29624">
        <ele>16</ele>
        <time>2019-04-04T12:31:08Z</time>
      </trkpt>
      <trkpt lat="49.90128" lon="2.29627">
        <ele>15</ele>
        <time>2019-04-04T12:31:14Z</time>
      </trkpt>
      <trkpt lat="49.90135" lon="2.29627">
        <ele>16</ele>
        <time>2019-04-04T12:31:19Z</time>
      </trkpt>
      <trkpt lat="49.90141" lon="2.29632">
        <ele>14</ele>
        <time>2019-04-04T12:31:27Z</time>
      </trkpt>
      <trkpt lat="49.90147" lon="2.29636">
        <ele>12</ele>
        <time>2019-04-04T12:31:35Z</time>
      </trkpt>
      <trkpt lat="49.90153" lon="2.29639">
        <ele>12</ele>
        <time>2019-04-04T12:31:42Z</time>
      </trkpt>
      <trkpt lat="49.90156" lon="2.29647">
        <ele>13</ele>
        <time>2019-04-04T12:31:51Z</time>
      </trkpt>
      <trkpt lat="49.90161" lon="2.29677">
        <ele>12</ele>
        <time>2019-04-04T12:32:10Z</time>
      </trkpt>
      <trkpt lat="49.90158" lon="2.29683">
        <ele>12</ele>
        <time>2019-04-04T12:32:17Z</time>
      </trkpt>
      <trkpt lat="49.9015" lon="2.29682">
        <ele>12</ele>
        <time>2019-04-04T12:32:28Z</time>
      </trkpt>
      <trkpt lat="49.90147" lon="2.29686">
        <ele>13</ele>
        <time>2019-04-04T12:32:33Z</time>
      </trkpt>
      <trkpt lat="49.90143" lon="2.29685">
        <ele>13</ele>
        <time>2019-04-04T12:32:46Z</time>
      </trkpt>
      <trkpt lat="49.90138" lon="2.29684">
        <ele>13</ele>
        <time>2019-04-04T12:32:50Z</time>
      </trkpt>
      <trkpt lat="49.90131" lon="2.29677">
        <ele>13</ele>
        <time>2019-04-04T12:32:59Z</time>
      </trkpt>
      <trkpt lat="49.90128" lon="2.29673">
        <ele>12</ele>
        <time>2019-04-04T12:33:04Z</time>
      </trkpt>
      <trkpt lat="49.90123" lon="2.2966">
        <ele>12</ele>
        <time>2019-04-04T12:33:13Z</time>
      </trkpt>
      <trkpt lat="49.90122" lon="2.29652">
        <ele>14</ele>
        <time>2019-04-04T12:33:18Z</time>
      </trkpt>
      <trkpt lat="49.90126" lon="2.29646">
        <ele>15</ele>
        <time>2019-04-04T12:33:23Z</time>
      </trkpt>
      <trkpt lat="49.90126" lon="2.2964">
        <ele>15</ele>
        <time>2019-04-04T12:33:30Z</time>
      </trkpt>
      <trkpt lat="49.90131" lon="2.29638">
        <ele>15</ele>
        <time>2019-04-04T12:34:00Z</time>
      </trkpt>
      <trkpt lat="49.90143" lon="2.29643">
        <ele>14</ele>
        <time>2019-04-04T12:34:36Z</time>
      </trkpt>
      <trkpt lat="49.90141" lon="2.29644">
        <ele>16</ele>
        <time>2019-04-04T12:36:05Z</time>
      </trkpt>
      <trkpt lat="49.90136" lon="2.2964">
        <ele>18</ele>
        <time>2019-04-04T12:36:13Z</time>
      </trkpt>
      <trkpt lat="49.90116" lon="2.29635">
        <ele>15</ele>
        <time>2019-04-04T12:36:44Z</time>
      </trkpt>
      <trkpt lat="49.90089" lon="2.29629">
        <ele>12</ele>
        <time>2019-04-04T12:37:16Z</time>
      </trkpt>
      <trkpt lat="49.90076" lon="2.29629">
        <ele>12</ele>
        <time>2019-04-04T12:37:36Z</time>
      </trkpt>
      <trkpt lat="49.90073" lon="2.29634">
        <ele>12</ele>
        <time>2019-04-04T12:37:56Z</time>
      </trkpt>
      <trkpt lat="49.9007" lon="2.29629">
        <ele>12</ele>
        <time>2019-04-04T12:38:17Z</time>
      </trkpt>
      <trkpt lat="49.90066" lon="2.29629">
        <ele>12</ele>
        <time>2019-04-04T12:38:24Z</time>
      </trkpt>
      <trkpt lat="49.9006" lon="2.29628">
        <ele>14</ele>
        <time>2019-04-04T12:38:37Z</time>
      </trkpt>
      <trkpt lat="49.90054" lon="2.29623">
        <ele>16</ele>
        <time>2019-04-04T12:39:38Z</time>
      </trkpt>
      <trkpt lat="49.9005" lon="2.29625">
        <ele>15</ele>
        <time>2019-04-04T12:39:54Z</time>
      </trkpt>
      <trkpt lat="49.90047" lon="2.29621">
        <ele>16</ele>
        <time>2019-04-04T12:40:12Z</time>
      </trkpt>
      <trkpt lat="49.90043" lon="2.29625">
        <ele>15</ele>
        <time>2019-04-04T12:40:26Z</time>
      </trkpt>
      <trkpt lat="49.9004" lon="2.2962">
        <ele>13</ele>
        <time>2019-04-04T12:40:47Z</time>
      </trkpt>
      <trkpt lat="49.90036" lon="2.29621">
        <ele>13</ele>
        <time>2019-04-04T12:40:55Z</time>
      </trkpt>
      <trkpt lat="49.90032" lon="2.2962">
        <ele>14</ele>
        <time>2019-04-04T12:41:06Z</time>
      </trkpt>
      <trkpt lat="49.90031" lon="2.29626">
        <ele>14</ele>
        <time>2019-04-04T12:41:15Z</time>
      </trkpt>
      <trkpt lat="49.9003" lon="2.29635">
        <ele>14</ele>
        <time>2019-04-04T12:41:26Z</time>
      </trkpt>
      <trkpt lat="49.90029" lon="2.29644">
        <ele>14</ele>
        <time>2019-04-04T12:41:35Z</time>
      </trkpt>
      <trkpt lat="49.90027" lon="2.29654">
        <ele>13</ele>
        <time>2019-04-04T12:41:43Z</time>
      </trkpt>
      <trkpt lat="49.90026" lon="2.29665">
        <ele>15</ele>
        <time>2019-04-04T12:41:51Z</time>
      </trkpt>
      <trkpt lat="49.90035" lon="2.29669">
        <ele>14</ele>
        <time>2019-04-04T12:42:36Z</time>
      </trkpt>
      <trkpt lat="49.90037" lon="2.29678">
        <ele>15</ele>
        <time>2019-04-04T12:43:20Z</time>
      </trkpt>
      <trkpt lat="49.90041" lon="2.29674">
        <ele>14</ele>
        <time>2019-04-04T12:43:28Z</time>
      </trkpt>
      <trkpt lat="49.90043" lon="2.29668">
        <ele>15</ele>
        <time>2019-04-04T12:43:34Z</time>
      </trkpt>
      <trkpt lat="49.90045" lon="2.29662">
        <ele>18</ele>
        <time>2019-04-04T12:43:55Z</time>
      </trkpt>
      <trkpt lat="49.90045" lon="2.29655">
        <ele>19</ele>
        <time>2019-04-04T12:44:05Z</time>
      </trkpt>
      <trkpt lat="49.90049" lon="2.29655">
        <ele>17</ele>
        <time>2019-04-04T12:45:11Z</time>
      </trkpt>
      <trkpt lat="49.90047" lon="2.29668">
        <ele>15</ele>
        <time>2019-04-04T12:45:21Z</time>
      </trkpt>
      <trkpt lat="49.90051" lon="2.29671">
        <ele>15</ele>
        <time>2019-04-04T12:46:13Z</time>
      </trkpt>
      <trkpt lat="49.90052" lon="2.29677">
        <ele>15</ele>
        <time>2019-04-04T12:46:34Z</time>
      </trkpt>
      <trkpt lat="49.90054" lon="2.29683">
        <ele>15</ele>
        <time>2019-04-04T12:46:45Z</time>
      </trkpt>
      <trkpt lat="49.9005" lon="2.29686">
        <ele>15</ele>
        <time>2019-04-04T12:46:51Z</time>
      </trkpt>
      <trkpt lat="49.90042" lon="2.29681">
        <ele>15</ele>
        <time>2019-04-04T12:47:23Z</time>
      </trkpt>
      <trkpt lat="49.90042" lon="2.29682">
        <ele>17</ele>
        <time>2019-04-04T12:48:07Z</time>
      </trkpt>
      <trkpt lat="49.90052" lon="2.29686">
        <ele>14</ele>
        <time>2019-04-04T12:48:19Z</time>
      </trkpt>
      <trkpt lat="49.90055" lon="2.29679">
        <ele>14</ele>
        <time>2019-04-04T12:48:24Z</time>
      </trkpt>
      <trkpt lat="49.90059" lon="2.29682">
        <ele>14</ele>
        <time>2019-04-04T12:48:31Z</time>
      </trkpt>
      <trkpt lat="49.90065" lon="2.29681">
        <ele>17</ele>
        <time>2019-04-04T12:49:04Z</time>
      </trkpt>
      <trkpt lat="49.90069" lon="2.29687">
        <ele>17</ele>
        <time>2019-04-04T12:49:12Z</time>
      </trkpt>
      <trkpt lat="49.90073" lon="2.29688">
        <ele>18</ele>
        <time>2019-04-04T12:49:17Z</time>
      </trkpt>
      <trkpt lat="49.90077" lon="2.29693">
        <ele>16</ele>
        <time>2019-04-04T12:49:31Z</time>
      </trkpt>
      <trkpt lat="49.90078" lon="2.29694">
        <ele>15</ele>
        <time>2019-04-04T12:50:29Z</time>
      </trkpt>
      <trkpt lat="49.90081" lon="2.29666">
        <ele>15</ele>
        <time>2019-04-04T12:50:50Z</time>
      </trkpt>
      <trkpt lat="49.9008" lon="2.29659">
        <ele>15</ele>
        <time>2019-04-04T12:50:57Z</time>
      </trkpt>
      <trkpt lat="49.90076" lon="2.29656">
        <ele>14</ele>
        <time>2019-04-04T12:51:03Z</time>
      </trkpt>
      <trkpt lat="49.90059" lon="2.29645">
        <ele>12</ele>
        <time>2019-04-04T12:51:24Z</time>
      </trkpt>
      <trkpt lat="49.90055" lon="2.29647">
        <ele>9</ele>
        <time>2019-04-04T12:51:31Z</time>
      </trkpt>
      <trkpt lat="49.90056" lon="2.29654">
        <ele>9</ele>
        <time>2019-04-04T12:51:36Z</time>
      </trkpt>
      <trkpt lat="49.90061" lon="2.29656">
        <ele>10</ele>
        <time>2019-04-04T12:51:41Z</time>
      </trkpt>
      <trkpt lat="49.90071" lon="2.29654">
        <ele>12</ele>
        <time>2019-04-04T12:51:50Z</time>
      </trkpt>
      <trkpt lat="49.90095" lon="2.29664">
        <ele>15</ele>
        <time>2019-04-04T12:52:14Z</time>
      </trkpt>
      <trkpt lat="49.90098" lon="2.29659">
        <ele>16</ele>
        <time>2019-04-04T12:52:34Z</time>
      </trkpt>
      <trkpt lat="49.90097" lon="2.2966">
        <ele>17</ele>
        <time>2019-04-04T12:53:38Z</time>
      </trkpt>
      <trkpt lat="49.90099" lon="2.29666">
        <ele>14</ele>
        <time>2019-04-04T12:53:43Z</time>
      </trkpt>
      <trkpt lat="49.90102" lon="2.29661">
        <ele>13</ele>
        <time>2019-04-04T12:54:01Z</time>
      </trkpt>
      <trkpt lat="49.90102" lon="2.29651">
        <ele>13</ele>
        <time>2019-04-04T12:54:14Z</time>
      </trkpt>
      <trkpt lat="49.90102" lon="2.29644">
        <ele>14</ele>
        <time>2019-04-04T12:54:22Z</time>
      </trkpt>
      <trkpt lat="49.90106" lon="2.29644">
        <ele>14</ele>
        <time>2019-04-04T12:54:42Z</time>
      </trkpt>
      <trkpt lat="49.90106" lon="2.29681">
        <ele>9</ele>
        <time>2019-04-04T12:55:21Z</time>
      </trkpt>
      <trkpt lat="49.90102" lon="2.29688">
        <ele>10</ele>
        <time>2019-04-04T12:55:24Z</time>
      </trkpt>
      <trkpt lat="49.90101" lon="2.29698">
        <ele>14</ele>
        <time>2019-04-04T12:55:32Z</time>
      </trkpt>
      <trkpt lat="49.90101" lon="2.29709">
        <ele>14</ele>
        <time>2019-04-04T12:55:48Z</time>
      </trkpt>
      <trkpt lat="49.90105" lon="2.29714">
        <ele>14</ele>
        <time>2019-04-04T12:55:57Z</time>
      </trkpt>
      <trkpt lat="49.90118" lon="2.29719">
        <ele>14</ele>
        <time>2019-04-04T12:56:11Z</time>
      </trkpt>
      <trkpt lat="49.90128" lon="2.29727">
        <ele>15</ele>
        <time>2019-04-04T12:56:20Z</time>
      </trkpt>
      <trkpt lat="49.90134" lon="2.2973">
        <ele>14</ele>
        <time>2019-04-04T12:56:29Z</time>
      </trkpt>
      <trkpt lat="49.90142" lon="2.29724">
        <ele>14</ele>
        <time>2019-04-04T12:56:38Z</time>
      </trkpt>
      <trkpt lat="49.90146" lon="2.29718">
        <ele>14</ele>
        <time>2019-04-04T12:56:44Z</time>
      </trkpt>
      <trkpt lat="49.90146" lon="2.29706">
        <ele>14</ele>
        <time>2019-04-04T12:56:52Z</time>
      </trkpt>
      <trkpt lat="49.90147" lon="2.29695">
        <ele>15</ele>
        <time>2019-04-04T12:57:05Z</time>
      </trkpt>
      <trkpt lat="49.90147" lon="2.29695">
        <ele>19</ele>
        <time>2019-04-04T12:57:36Z</time>
      </trkpt>
      <trkpt lat="49.90141" lon="2.29724">
        <ele>16</ele>
        <time>2019-04-04T12:57:56Z</time>
      </trkpt>
      <trkpt lat="49.90138" lon="2.2973">
        <ele>16</ele>
        <time>2019-04-04T12:58:00Z</time>
      </trkpt>
      <trkpt lat="49.90133" lon="2.29733">
        <ele>16</ele>
        <time>2019-04-04T12:58:04Z</time>
      </trkpt>
      <trkpt lat="49.90129" lon="2.29733">
        <ele>16</ele>
        <time>2019-04-04T12:58:09Z</time>
      </trkpt>
      <trkpt lat="49.90125" lon="2.2973">
        <ele>16</ele>
        <time>2019-04-04T12:58:13Z</time>
      </trkpt>
      <trkpt lat="49.9012" lon="2.29729">
        <ele>16</ele>
        <time>2019-04-04T12:58:17Z</time>
      </trkpt>
      <trkpt lat="49.90116" lon="2.29732">
        <ele>17</ele>
        <time>2019-04-04T12:58:21Z</time>
      </trkpt>
      <trkpt lat="49.90115" lon="2.29738">
        <ele>18</ele>
        <time>2019-04-04T12:58:29Z</time>
      </trkpt>
      <trkpt lat="49.90118" lon="2.29748">
        <ele>15</ele>
        <time>2019-04-04T12:58:40Z</time>
      </trkpt>
      <trkpt lat="49.90122" lon="2.29754">
        <ele>15</ele>
        <time>2019-04-04T12:59:02Z</time>
      </trkpt>
      <trkpt lat="49.90126" lon="2.29771">
        <ele>15</ele>
        <time>2019-04-04T12:59:05Z</time>
      </trkpt>
      <trkpt lat="49.9013" lon="2.29787">
        <ele>14</ele>
        <time>2019-04-04T12:59:17Z</time>
      </trkpt>
      <trkpt lat="49.90124" lon="2.29809">
        <ele>16</ele>
        <time>2019-04-04T12:59:30Z</time>
      </trkpt>
      <trkpt lat="49.90115" lon="2.29822">
        <ele>15</ele>
        <time>2019-04-04T12:59:52Z</time>
      </trkpt>
      <trkpt lat="49.90109" lon="2.29843">
        <ele>16</ele>
        <time>2019-04-04T13:00:04Z</time>
      </trkpt>
      <trkpt lat="49.90102" lon="2.29845">
        <ele>17</ele>
        <time>2019-04-04T13:00:11Z</time>
      </trkpt>
      <trkpt lat="49.90088" lon="2.29875">
        <ele>17</ele>
        <time>2019-04-04T13:00:39Z</time>
      </trkpt>
      <trkpt lat="49.90092" lon="2.29893">
        <ele>19</ele>
        <time>2019-04-04T13:00:56Z</time>
      </trkpt>
      <trkpt lat="49.90088" lon="2.29898">
        <ele>18</ele>
        <time>2019-04-04T13:01:05Z</time>
      </trkpt>
      <trkpt lat="49.90085" lon="2.29901">
        <ele>17</ele>
        <time>2019-04-04T13:01:09Z</time>
      </trkpt>
      <trkpt lat="49.90079" lon="2.29899">
        <ele>18</ele>
        <time>2019-04-04T13:01:20Z</time>
      </trkpt>
      <trkpt lat="49.90073" lon="2.29914">
        <ele>20</ele>
        <time>2019-04-04T13:01:31Z</time>
      </trkpt>
      <trkpt lat="49.90071" lon="2.29922">
        <ele>21</ele>
        <time>2019-04-04T13:01:36Z</time>
      </trkpt>
      <trkpt lat="49.90071" lon="2.29932">
        <ele>22</ele>
        <time>2019-04-04T13:01:41Z</time>
      </trkpt>
      <trkpt lat="49.90069" lon="2.29957">
        <ele>22</ele>
        <time>2019-04-04T13:01:59Z</time>
      </trkpt>
      <trkpt lat="49.90066" lon="2.29972">
        <ele>22</ele>
        <time>2019-04-04T13:02:07Z</time>
      </trkpt>
      <trkpt lat="49.90066" lon="2.29987">
        <ele>20</ele>
        <time>2019-04-04T13:02:16Z</time>
      </trkpt>
      <trkpt lat="49.90064" lon="2.29992">
        <ele>19</ele>
        <time>2019-04-04T13:02:22Z</time>
      </trkpt>
      <trkpt lat="49.90059" lon="2.3">
        <ele>18</ele>
        <time>2019-04-04T13:02:30Z</time>
      </trkpt>
      <trkpt lat="49.90053" lon="2.29998">
        <ele>17</ele>
        <time>2019-04-04T13:02:38Z</time>
      </trkpt>
      <trkpt lat="49.90048" lon="2.30003">
        <ele>15</ele>
        <time>2019-04-04T13:02:42Z</time>
      </trkpt>
      <trkpt lat="49.90041" lon="2.30005">
        <ele>16</ele>
        <time>2019-04-04T13:02:48Z</time>
      </trkpt>
      <trkpt lat="49.90031" lon="2.30014">
        <ele>18</ele>
        <time>2019-04-04T13:02:57Z</time>
      </trkpt>
      <trkpt lat="49.89996" lon="2.30019">
        <ele>14</ele>
        <time>2019-04-04T13:03:30Z</time>
      </trkpt>
      <trkpt lat="49.89987" lon="2.30023">
        <ele>15</ele>
        <time>2019-04-04T13:03:38Z</time>
      </trkpt>
      <trkpt lat="49.89987" lon="2.30031">
        <ele>17</ele>
        <time>2019-04-04T13:03:43Z</time>
      </trkpt>
      <trkpt lat="49.89985" lon="2.30037">
        <ele>19</ele>
        <time>2019-04-04T13:03:49Z</time>
      </trkpt>
      <trkpt lat="49.89981" lon="2.3004">
        <ele>21</ele>
        <time>2019-04-04T13:03:58Z</time>
      </trkpt>
      <trkpt lat="49.89971" lon="2.30041">
        <ele>20</ele>
        <time>2019-04-04T13:04:09Z</time>
      </trkpt>
      <trkpt lat="49.89963" lon="2.30048">
        <ele>18</ele>
        <time>2019-04-04T13:04:18Z</time>
      </trkpt>
      <trkpt lat="49.89959" lon="2.30048">
        <ele>18</ele>
        <time>2019-04-04T13:04:22Z</time>
      </trkpt>
      <trkpt lat="49.89943" lon="2.3005">
        <ele>12</ele>
        <time>2019-04-04T13:04:36Z</time>
      </trkpt>
      <trkpt lat="49.8993" lon="2.30063">
        <ele>9</ele>
        <time>2019-04-04T13:04:49Z</time>
      </trkpt>
      <trkpt lat="49.89918" lon="2.3008">
        <ele>9</ele>
        <time>2019-04-04T13:05:03Z</time>
      </trkpt>
      <trkpt lat="49.89902" lon="2.30072">
        <ele>12</ele>
        <time>2019-04-04T13:05:13Z</time>
      </trkpt>
      <trkpt lat="49.89887" lon="2.30076">
        <ele>17</ele>
        <time>2019-04-04T13:05:37Z</time>
      </trkpt>
      <trkpt lat="49.8987" lon="2.30078">
        <ele>16</ele>
        <time>2019-04-04T13:05:54Z</time>
      </trkpt>
      <trkpt lat="49.89859" lon="2.30075">
        <ele>15</ele>
        <time>2019-04-04T13:06:03Z</time>
      </trkpt>
      <trkpt lat="49.8985" lon="2.30079">
        <ele>16</ele>
        <time>2019-04-04T13:06:12Z</time>
      </trkpt>
      <trkpt lat="49.89836" lon="2.30081">
        <ele>17</ele>
        <time>2019-04-04T13:06:23Z</time>
      </trkpt>
      <trkpt lat="49.8983" lon="2.30082">
        <ele>21</ele>
        <time>2019-04-04T13:06:30Z</time>
      </trkpt>
      <trkpt lat="49.89812" lon="2.30081">
        <ele>20</ele>
        <time>2019-04-04T13:06:45Z</time>
      </trkpt>
      <trkpt lat="49.89807" lon="2.30084">
        <ele>20</ele>
        <time>2019-04-04T13:06:50Z</time>
      </trkpt>
      <trkpt lat="49.89797" lon="2.30081">
        <ele>20</ele>
        <time>2019-04-04T13:07:01Z</time>
      </trkpt>
      <trkpt lat="49.89787" lon="2.30085">
        <ele>20</ele>
        <time>2019-04-04T13:07:16Z</time>
      </trkpt>
      <trkpt lat="49.89779" lon="2.30086">
        <ele>24</ele>
        <time>2019-04-04T13:07:23Z</time>
      </trkpt>
      <trkpt lat="49.89757" lon="2.30089">
        <ele>22</ele>
        <time>2019-04-04T13:07:41Z</time>
      </trkpt>
      <trkpt lat="49.89745" lon="2.30094">
        <ele>20</ele>
        <time>2019-04-04T13:07:59Z</time>
      </trkpt>
      <trkpt lat="49.89731" lon="2.3009">
        <ele>18</ele>
        <time>2019-04-04T13:08:15Z</time>
      </trkpt>
      <trkpt lat="49.89703" lon="2.30064">
        <ele>17</ele>
        <time>2019-04-04T13:08:39Z</time>
      </trkpt>
      <trkpt lat="49.89686" lon="2.30054">
        <ele>25</ele>
        <time>2019-04-04T13:08:53Z</time>
      </trkpt>
      <trkpt lat="49.89675" lon="2.30061">
        <ele>19</ele>
        <time>2019-04-04T13:09:13Z</time>
      </trkpt>
      <trkpt lat="49.89667" lon="2.30058">
        <ele>14</ele>
        <time>2019-04-04T13:09:22Z</time>
      </trkpt>
      <trkpt lat="49.89663" lon="2.30065">
        <ele>12</ele>
        <time>2019-04-04T13:09:30Z</time>
      </trkpt>
      <trkpt lat="49.89655" lon="2.30069">
        <ele>12</ele>
        <time>2019-04-04T13:09:39Z</time>
      </trkpt>
      <trkpt lat="49.8964" lon="2.30079">
        <ele>15</ele>
        <time>2019-04-04T13:09:49Z</time>
      </trkpt>
      <trkpt lat="49.89631" lon="2.30083">
        <ele>16</ele>
        <time>2019-04-04T13:09:57Z</time>
      </trkpt>
      <trkpt lat="49.89626" lon="2.30081">
        <ele>17</ele>
        <time>2019-04-04T13:10:03Z</time>
      </trkpt>
      <trkpt lat="49.89622" lon="2.30078">
        <ele>20</ele>
        <time>2019-04-04T13:10:08Z</time>
      </trkpt>
      <trkpt lat="49.89613" lon="2.3008">
        <ele>22</ele>
        <time>2019-04-04T13:10:16Z</time>
      </trkpt>
      <trkpt lat="49.89601" lon="2.3009">
        <ele>22</ele>
        <time>2019-04-04T13:10:29Z</time>
      </trkpt>
      <trkpt lat="49.89569" lon="2.30102">
        <ele>24</ele>
        <time>2019-04-04T13:11:00Z</time>
      </trkpt>
      <trkpt lat="49.89564" lon="2.30101">
        <ele>27</ele>
        <time>2019-04-04T13:11:06Z</time>
      </trkpt>
      <trkpt lat="49.89561" lon="2.30097">
        <ele>29</ele>
        <time>2019-04-04T13:11:12Z</time>
      </trkpt>
      <trkpt lat="49.89553" lon="2.30103">
        <ele>28</ele>
        <time>2019-04-04T13:11:22Z</time>
      </trkpt>
      <trkpt lat="49.89545" lon="2.30115">
        <ele>25</ele>
        <time>2019-04-04T13:11:38Z</time>
      </trkpt>
      <trkpt lat="49.89541" lon="2.30113">
        <ele>22</ele>
        <time>2019-04-04T13:11:45Z</time>
      </trkpt>
      <trkpt lat="49.89522" lon="2.30113">
        <ele>23</ele>
        <time>2019-04-04T13:12:07Z</time>
      </trkpt>
      <trkpt lat="49.89513" lon="2.30115">
        <ele>26</ele>
        <time>2019-04-04T13:12:16Z</time>
      </trkpt>
      <trkpt lat="49.89505" lon="2.3011">
        <ele>28</ele>
        <time>2019-04-04T13:12:24Z</time>
      </trkpt>
      <trkpt lat="49.89478" lon="2.30105">
        <ele>31</ele>
        <time>2019-04-04T13:12:54Z</time>
      </trkpt>
      <trkpt lat="49.8947" lon="2.30101">
        <ele>33</ele>
        <time>2019-04-04T13:13:02Z</time>
      </trkpt>
      <trkpt lat="49.89459" lon="2.30106">
        <ele>35</ele>
        <time>2019-04-04T13:13:16Z</time>
      </trkpt>
      <trkpt lat="49.89453" lon="2.30108">
        <ele>35</ele>
        <time>2019-04-04T13:13:24Z</time>
      </trkpt>
      <trkpt lat="49.89441" lon="2.30104">
        <ele>35</ele>
        <time>2019-04-04T13:13:35Z</time>
      </trkpt>
      <trkpt lat="49.89427" lon="2.30101">
        <ele>35</ele>
        <time>2019-04-04T13:13:50Z</time>
      </trkpt>
      <trkpt lat="49.89414" lon="2.30084">
        <ele>33</ele>
        <time>2019-04-04T13:14:04Z</time>
      </trkpt>
      <trkpt lat="49.894" lon="2.30063">
        <ele>30</ele>
        <time>2019-04-04T13:14:18Z</time>
      </trkpt>
      <trkpt lat="49.89385" lon="2.30072">
        <ele>33</ele>
        <time>2019-04-04T13:14:35Z</time>
      </trkpt>
      <trkpt lat="49.89353" lon="2.30045">
        <ele>35</ele>
        <time>2019-04-04T13:15:16Z</time>
      </trkpt>
      <trkpt lat="49.89342" lon="2.30037">
        <ele>32</ele>
        <time>2019-04-04T13:15:28Z</time>
      </trkpt>
      <trkpt lat="49.89331" lon="2.3003">
        <ele>25</ele>
        <time>2019-04-04T13:15:59Z</time>
      </trkpt>
      <trkpt lat="49.8932" lon="2.30026">
        <ele>26</ele>
        <time>2019-04-04T13:16:09Z</time>
      </trkpt>
      <trkpt lat="49.89315" lon="2.30027">
        <ele>26</ele>
        <time>2019-04-04T13:16:16Z</time>
      </trkpt>
      <trkpt lat="49.89312" lon="2.30033">
        <ele>27</ele>
        <time>2019-04-04T13:16:36Z</time>
      </trkpt>
      <trkpt lat="49.89309" lon="2.30041">
        <ele>28</ele>
        <time>2019-04-04T13:16:42Z</time>
      </trkpt>
      <trkpt lat="49.89304" lon="2.30042">
        <ele>29</ele>
        <time>2019-04-04T13:16:46Z</time>
      </trkpt>
      <trkpt lat="49.893" lon="2.30042">
        <ele>31</ele>
        <time>2019-04-04T13:16:50Z</time>
      </trkpt>
      <trkpt lat="49.89296" lon="2.30041">
        <ele>31</ele>
        <time>2019-04-04T13:16:56Z</time>
      </trkpt>
      <trkpt lat="49.89292" lon="2.30037">
        <ele>31</ele>
        <time>2019-04-04T13:17:08Z</time>
      </trkpt>
      <trkpt lat="49.89288" lon="2.30034">
        <ele>30</ele>
        <time>2019-04-04T13:18:33Z</time>
      </trkpt>
      <trkpt lat="49.8928" lon="2.30027">
        <ele>31</ele>
        <time>2019-04-04T13:18:45Z</time>
      </trkpt>
      <trkpt lat="49.89277" lon="2.30022">
        <ele>32</ele>
        <time>2019-04-04T13:18:53Z</time>
      </trkpt>
      <trkpt lat="49.89278" lon="2.30008">
        <ele>32</ele>
        <time>2019-04-04T13:18:59Z</time>
      </trkpt>
      <trkpt lat="49.89276" lon="2.29994">
        <ele>31</ele>
        <time>2019-04-04T13:19:19Z</time>
      </trkpt>
      <trkpt lat="49.89268" lon="2.2999">
        <ele>35</ele>
        <time>2019-04-04T13:19:28Z</time>
      </trkpt>
      <trkpt lat="49.89246" lon="2.2995">
        <ele>38</ele>
        <time>2019-04-04T13:19:49Z</time>
      </trkpt>
      <trkpt lat="49.89238" lon="2.29967">
        <ele>38</ele>
        <time>2019-04-04T13:19:58Z</time>
      </trkpt>
      <trkpt lat="49.89234" lon="2.2999">
        <ele>43</ele>
        <time>2019-04-04T13:20:17Z</time>
      </trkpt>
      <trkpt lat="49.89232" lon="2.30012">
        <ele>42</ele>
        <time>2019-04-04T13:20:30Z</time>
      </trkpt>
      <trkpt lat="49.89221" lon="2.30021">
        <ele>41</ele>
        <time>2019-04-04T13:21:00Z</time>
      </trkpt>
      <trkpt lat="49.89196" lon="2.30013">
        <ele>41</ele>
        <time>2019-04-04T13:21:41Z</time>
      </trkpt>
      <trkpt lat="49.89184" lon="2.30005">
        <ele>51</ele>
        <time>2019-04-04T13:21:57Z</time>
      </trkpt>
      <trkpt lat="49.89168" lon="2.29978">
        <ele>54</ele>
        <time>2019-04-04T13:22:09Z</time>
      </trkpt>
      <trkpt lat="49.89154" lon="2.29967">
        <ele>62</ele>
        <time>2019-04-04T13:22:25Z</time>
      </trkpt>
      <trkpt lat="49.89154" lon="2.29987">
        <ele>50</ele>
        <time>2019-04-04T13:23:31Z</time>
      </trkpt>
      <trkpt lat="49.89167" lon="2.29979">
        <ele>45</ele>
        <time>2019-04-04T13:24:20Z</time>
      </trkpt>
      <trkpt lat="49.89183" lon="2.29991">
        <ele>45</ele>
        <time>2019-04-04T13:24:33Z</time>
      </trkpt>
      <trkpt lat="49.89201" lon="2.29994">
        <ele>42</ele>
        <time>2019-04-04T13:24:42Z</time>
      </trkpt>
      <trkpt lat="49.89218" lon="2.29999">
        <ele>43</ele>
        <time>2019-04-04T13:24:50Z</time>
      </trkpt>
      <trkpt lat="49.89229" lon="2.30019">
        <ele>46</ele>
        <time>2019-04-04T13:25:08Z</time>
      </trkpt>
      <trkpt lat="49.89217" lon="2.30038">
        <ele>43</ele>
        <time>2019-04-04T13:25:21Z</time>
      </trkpt>
      <trkpt lat="49.89213" lon="2.30061">
        <ele>32</ele>
        <time>2019-04-04T13:25:33Z</time>
      </trkpt>
      <trkpt lat="49.89206" lon="2.30081">
        <ele>29</ele>
        <time>2019-04-04T13:25:47Z</time>
      </trkpt>
      <trkpt lat="49.89199" lon="2.30102">
        <ele>27</ele>
        <time>2019-04-04T13:26:04Z</time>
      </trkpt>
      <trkpt lat="49.89192" lon="2.30121">
        <ele>28</ele>
        <time>2019-04-04T13:26:16Z</time>
      </trkpt>
      <trkpt lat="49.89176" lon="2.30161">
        <ele>28</ele>
        <time>2019-04-04T13:26:45Z</time>
      </trkpt>
      <trkpt lat="49.89162" lon="2.30184">
        <ele>24</ele>
        <time>2019-04-04T13:27:03Z</time>
      </trkpt>
      <trkpt lat="49.8916" lon="2.30204">
        <ele>25</ele>
        <time>2019-04-04T13:27:15Z</time>
      </trkpt>
      <trkpt lat="49.89155" lon="2.30219">
        <ele>30</ele>
        <time>2019-04-04T13:27:26Z</time>
      </trkpt>
      <trkpt lat="49.89155" lon="2.30227">
        <ele>30</ele>
        <time>2019-04-04T13:27:31Z</time>
      </trkpt>
      <trkpt lat="49.89159" lon="2.30233">
        <ele>30</ele>
        <time>2019-04-04T13:27:38Z</time>
      </trkpt>
      <trkpt lat="49.89164" lon="2.30241">
        <ele>29</ele>
        <time>2019-04-04T13:27:44Z</time>
      </trkpt>
      <trkpt lat="49.89165" lon="2.30252">
        <ele>30</ele>
        <time>2019-04-04T13:27:51Z</time>
      </trkpt>
      <trkpt lat="49.89165" lon="2.30261">
        <ele>30</ele>
        <time>2019-04-04T13:28:17Z</time>
      </trkpt>
      <trkpt lat="49.89161" lon="2.30281">
        <ele>31</ele>
        <time>2019-04-04T13:28:30Z</time>
      </trkpt>
      <trkpt lat="49.89158" lon="2.30293">
        <ele>34</ele>
        <time>2019-04-04T13:28:40Z</time>
      </trkpt>
      <trkpt lat="49.89151" lon="2.30322">
        <ele>36</ele>
        <time>2019-04-04T13:29:02Z</time>
      </trkpt>
      <trkpt lat="49.89145" lon="2.30331">
        <ele>34</ele>
        <time>2019-04-04T13:29:10Z</time>
      </trkpt>
      <trkpt lat="49.89147" lon="2.30368">
        <ele>32</ele>
        <time>2019-04-04T13:29:35Z</time>
      </trkpt>
      <trkpt lat="49.89125" lon="2.30419">
        <ele>34</ele>
        <time>2019-04-04T13:30:14Z</time>
      </trkpt>
      <trkpt lat="49.89121" lon="2.30439">
        <ele>34</ele>
        <time>2019-04-04T13:30:29Z</time>
      </trkpt>
      <trkpt lat="49.8911" lon="2.30479">
        <ele>33</ele>
        <time>2019-04-04T13:30:57Z</time>
      </trkpt>
      <trkpt lat="49.89102" lon="2.30496">
        <ele>37</ele>
        <time>2019-04-04T13:31:12Z</time>
      </trkpt>
      <trkpt lat="49.89089" lon="2.30506">
        <ele>42</ele>
        <time>2019-04-04T13:31:25Z</time>
      </trkpt>
      <trkpt lat="49.89081" lon="2.30526">
        <ele>45</ele>
        <time>2019-04-04T13:31:38Z</time>
      </trkpt>
      <trkpt lat="49.89082" lon="2.30527">
        <ele>45</ele>
        <time>2019-04-04T13:57:37Z</time>
      </trkpt>
      <trkpt lat="49.89096" lon="2.3052">
        <ele>41</ele>
        <time>2019-04-04T13:57:53Z</time>
      </trkpt>
      <trkpt lat="49.89092" lon="2.30547">
        <ele>31</ele>
        <time>2019-04-04T14:01:42Z</time>
      </trkpt>
      <trkpt lat="49.89087" lon="2.30564">
        <ele>31</ele>
        <time>2019-04-04T14:01:53Z</time>
      </trkpt>
      <trkpt lat="49.89079" lon="2.30587">
        <ele>34</ele>
        <time>2019-04-04T14:02:08Z</time>
      </trkpt>
      <trkpt lat="49.8908" lon="2.30596">
        <ele>35</ele>
        <time>2019-04-04T14:02:12Z</time>
      </trkpt>
      <trkpt lat="49.89081" lon="2.30605">
        <ele>36</ele>
        <time>2019-04-04T14:02:18Z</time>
      </trkpt>
      <trkpt lat="49.89084" lon="2.30612">
        <ele>37</ele>
        <time>2019-04-04T14:02:23Z</time>
      </trkpt>
      <trkpt lat="49.89086" lon="2.30619">
        <ele>36</ele>
        <time>2019-04-04T14:02:29Z</time>
      </trkpt>
      <trkpt lat="49.89088" lon="2.30624">
        <ele>36</ele>
        <time>2019-04-04T14:02:35Z</time>
      </trkpt>
      <trkpt lat="49.89092" lon="2.30625">
        <ele>36</ele>
        <time>2019-04-04T14:02:44Z</time>
      </trkpt>
      <trkpt lat="49.89089" lon="2.30631">
        <ele>34</ele>
        <time>2019-04-04T14:03:11Z</time>
      </trkpt>
      <trkpt lat="49.89087" lon="2.3065">
        <ele>35</ele>
        <time>2019-04-04T14:03:22Z</time>
      </trkpt>
      <trkpt lat="49.89089" lon="2.30658">
        <ele>37</ele>
        <time>2019-04-04T14:03:31Z</time>
      </trkpt>
      <trkpt lat="49.89082" lon="2.30668">
        <ele>39</ele>
        <time>2019-04-04T14:03:46Z</time>
      </trkpt>
      <trkpt lat="49.89078" lon="2.30685">
        <ele>40</ele>
        <time>2019-04-04T14:04:01Z</time>
      </trkpt>
      <trkpt lat="49.89073" lon="2.30702">
        <ele>35</ele>
        <time>2019-04-04T14:04:11Z</time>
      </trkpt>
      <trkpt lat="49.89067" lon="2.30713">
        <ele>31</ele>
        <time>2019-04-04T14:04:17Z</time>
      </trkpt>
      <trkpt lat="49.89062" lon="2.30739">
        <ele>28</ele>
        <time>2019-04-04T14:04:31Z</time>
      </trkpt>
      <trkpt lat="49.89061" lon="2.30764">
        <ele>37</ele>
        <time>2019-04-04T14:04:49Z</time>
      </trkpt>
      <trkpt lat="49.89067" lon="2.30776">
        <ele>42</ele>
        <time>2019-04-04T14:05:07Z</time>
      </trkpt>
      <trkpt lat="49.89067" lon="2.30829">
        <ele>41</ele>
        <time>2019-04-04T14:06:36Z</time>
      </trkpt>
      <trkpt lat="49.89054" lon="2.30849">
        <ele>36</ele>
        <time>2019-04-04T14:37:31Z</time>
      </trkpt>
      <trkpt lat="49.89039" lon="2.30863">
        <ele>30</ele>
        <time>2019-04-04T14:37:37Z</time>
      </trkpt>
      <trkpt lat="49.89026" lon="2.30871">
        <ele>28</ele>
        <time>2019-04-04T14:37:43Z</time>
      </trkpt>
      <trkpt lat="49.88998" lon="2.30898">
        <ele>23</ele>
        <time>2019-04-04T14:38:10Z</time>
      </trkpt>
      <trkpt lat="49.8899" lon="2.30918">
        <ele>29</ele>
        <time>2019-04-04T14:38:27Z</time>
      </trkpt>
      <trkpt lat="49.8899" lon="2.30942">
        <ele>29</ele>
        <time>2019-04-04T14:38:57Z</time>
      </trkpt>
      <trkpt lat="49.88995" lon="2.30963">
        <ele>26</ele>
        <time>2019-04-04T14:39:16Z</time>
      </trkpt>
      <trkpt lat="49.88995" lon="2.30978">
        <ele>22</ele>
        <time>2019-04-04T14:39:31Z</time>
      </trkpt>
      <trkpt lat="49.88989" lon="2.30998">
        <ele>7</ele>
        <time>2019-04-04T14:39:49Z</time>
      </trkpt>
    </trkseg>
  </trk>
</gpx>